UAL651 VTSP-KEWR
Flight info
| Callsign | UAL651 |
|---|---|
| Flight time | N/A |
| Altitude | 35000 |
| Route | ONETI1A ONETI R575 PAPRA/K0924F350 A1 IKELA/N0498F350 DCT MORTU DCT NOBAD DCT KAPLI G86 HCN J5 GUMBO DCT ALBAX Y533 AZAMA Y57 PUTER A590 PLADO DCT 5223N17114E DCT PUGGY A590 HAMND DCT TED J511 GKN J124 ORT DCT 63N140W 63N130W 62N120W 59N110W 5530N10000W DCT MISAX DCT SSM DCT SIKBO DCT GEE FLOSI4 |
| Aircraft | B77L/H-SDE1E2E3FGHIJ2J3J4J5M1RWXY/LB1D1 |
Departure
| Time | 2026-04-29 06:06 |
|---|---|
| Airport | Phuket International Airport (VTSP) |
Arrival
| Time | N/A |
|---|---|
| Airport | Newark Liberty International Airport (KEWR) |
| Time | Latitude | Longitude | Altitude | Speed | Heading |
|---|---|---|---|---|---|
| 2026-04-29 05:37 | 8.10658 | 98.30464 | 91 ft | 0 kts | 105° |
| 2026-04-29 05:59 | 8.10659 | 98.30463 | 86 ft | 2 kts | 105° |
| 2026-04-29 06:00 | 8.10664 | 98.30447 | 87 ft | 4 kts | 115° |
| 2026-04-29 06:00 | 8.10677 | 98.30426 | 89 ft | 4 kts | 137° |
| 2026-04-29 06:00 | 8.10698 | 98.30409 | 89 ft | 4 kts | 144° |
| 2026-04-29 06:01 | 8.10704 | 98.30406 | 90 ft | 0 kts | 142° |
| 2026-04-29 06:02 | 8.10703 | 98.30407 | 90 ft | 1 kts | 133° |
| 2026-04-29 06:03 | 8.10714 | 98.30424 | 90 ft | 5 kts | 24° |
| 2026-04-29 06:03 | 8.10773 | 98.30422 | 88 ft | 9 kts | 358° |
| 2026-04-29 06:03 | 8.10836 | 98.30430 | 89 ft | 10 kts | 16° |
| 2026-04-29 06:03 | 8.10909 | 98.30451 | 90 ft | 11 kts | 12° |
| 2026-04-29 06:04 | 8.10986 | 98.30469 | 90 ft | 11 kts | 6° |
| 2026-04-29 06:04 | 8.11040 | 98.30421 | 88 ft | 11 kts | 278° |
| 2026-04-29 06:04 | 8.11074 | 98.30355 | 90 ft | 12 kts | 340° |
| 2026-04-29 06:04 | 8.11158 | 98.30343 | 91 ft | 12 kts | 4° |
| 2026-04-29 06:05 | 8.11211 | 98.30455 | 90 ft | 41 kts | 84° |
| 2026-04-29 06:05 | 8.11257 | 98.30981 | 91 ft | 110 kts | 84° |
| 2026-04-29 06:05 | 8.11350 | 98.31975 | 94 ft | 174 kts | 84° |
| 2026-04-29 06:05 | 8.11462 | 98.33294 | 453 ft | 195 kts | 85° |
| 2026-04-29 06:06 | 8.11594 | 98.34712 | 939 ft | 209 kts | 85° |
| 2026-04-29 06:06 | 8.11739 | 98.36206 | 1293 ft | 221 kts | 85° |
| 2026-04-29 06:06 | 8.11895 | 98.37820 | 1470 ft | 238 kts | 85° |
| 2026-04-29 06:06 | 8.12057 | 98.39524 | 1851 ft | 249 kts | 85° |
| 2026-04-29 06:07 | 8.12225 | 98.41295 | 2267 ft | 258 kts | 85° |
| 2026-04-29 06:07 | 8.12398 | 98.43124 | 2790 ft | 264 kts | 85° |
| 2026-04-29 06:07 | 8.12572 | 98.44977 | 3399 ft | 266 kts | 85° |
| 2026-04-29 06:07 | 8.12747 | 98.46843 | 4004 ft | 268 kts | 85° |
| 2026-04-29 06:08 | 8.12921 | 98.48700 | 4603 ft | 270 kts | 85° |
| 2026-04-29 06:08 | 8.13098 | 98.50598 | 5182 ft | 273 kts | 85° |
| 2026-04-29 06:08 | 8.13277 | 98.52516 | 5753 ft | 275 kts | 85° |
| 2026-04-29 06:08 | 8.13457 | 98.54445 | 6316 ft | 277 kts | 85° |
| 2026-04-29 06:09 | 8.13638 | 98.56393 | 6873 ft | 279 kts | 85° |
| 2026-04-29 06:09 | 8.13820 | 98.58353 | 7413 ft | 282 kts | 85° |
| 2026-04-29 06:09 | 8.14037 | 98.60320 | 7915 ft | 282 kts | 76° |
| 2026-04-29 06:09 | 8.14913 | 98.62094 | 8245 ft | 286 kts | 47° |
| 2026-04-29 06:10 | 8.16308 | 98.63535 | 8662 ft | 289 kts | 45° |
| 2026-04-29 06:10 | 8.17727 | 98.64987 | 9180 ft | 291 kts | 45° |
| 2026-04-29 06:10 | 8.19127 | 98.66427 | 9706 ft | 292 kts | 45° |
| 2026-04-29 06:10 | 8.20553 | 98.67897 | 10198 ft | 294 kts | 45° |
| 2026-04-29 06:11 | 8.22007 | 98.69400 | 10468 ft | 307 kts | 46° |
| 2026-04-29 06:11 | 8.23544 | 98.70993 | 10602 ft | 323 kts | 46° |
| 2026-04-29 06:11 | 8.25152 | 98.72661 | 10754 ft | 340 kts | 46° |
| 2026-04-29 06:11 | 8.26851 | 98.74427 | 10898 ft | 358 kts | 46° |
| 2026-04-29 06:12 | 8.28627 | 98.76273 | 11067 ft | 375 kts | 46° |
| 2026-04-29 06:12 | 8.30277 | 98.78292 | 11184 ft | 383 kts | 62° |
| 2026-04-29 06:12 | 8.31331 | 98.80784 | 11456 ft | 389 kts | 70° |
| 2026-04-29 06:12 | 8.32287 | 98.83357 | 12019 ft | 393 kts | 69° |
| 2026-04-29 06:13 | 8.33261 | 98.85942 | 12697 ft | 394 kts | 69° |
| 2026-04-29 06:13 | 8.34250 | 98.88526 | 13299 ft | 396 kts | 69° |
| 2026-04-29 06:13 | 8.34917 | 98.90248 | 13672 ft | 399 kts | 69° |
| 2026-04-29 06:13 | 8.35937 | 98.92864 | 14204 ft | 402 kts | 69° |
| 2026-04-29 06:14 | 8.36972 | 98.95503 | 14742 ft | 406 kts | 68° |
| 2026-04-29 06:14 | 8.38021 | 98.98165 | 15277 ft | 409 kts | 68° |
| 2026-04-29 06:14 | 8.39078 | 99.00847 | 15802 ft | 412 kts | 68° |
| 2026-04-29 06:14 | 8.40142 | 99.03542 | 16317 ft | 415 kts | 68° |
| 2026-04-29 06:15 | 8.41213 | 99.06257 | 16809 ft | 418 kts | 68° |
| 2026-04-29 06:15 | 8.42296 | 99.09005 | 17295 ft | 421 kts | 68° |
| 2026-04-29 06:15 | 8.43370 | 99.11731 | 17766 ft | 424 kts | 68° |
| 2026-04-29 06:15 | 8.44466 | 99.14512 | 18238 ft | 427 kts | 68° |
| 2026-04-29 06:16 | 8.45571 | 99.17319 | 18690 ft | 430 kts | 68° |
| 2026-04-29 06:16 | 8.46680 | 99.20134 | 19138 ft | 433 kts | 68° |
| 2026-04-29 06:16 | 8.47796 | 99.22969 | 19572 ft | 435 kts | 68° |
| 2026-04-29 06:16 | 8.48919 | 99.25825 | 19995 ft | 438 kts | 68° |
| 2026-04-29 06:17 | 8.50048 | 99.28693 | 20412 ft | 441 kts | 68° |
| 2026-04-29 06:17 | 8.51171 | 99.31549 | 20819 ft | 443 kts | 68° |
| 2026-04-29 06:17 | 8.52316 | 99.34460 | 21218 ft | 446 kts | 68° |
| 2026-04-29 06:17 | 8.53463 | 99.37378 | 21623 ft | 449 kts | 68° |
| 2026-04-29 06:18 | 8.54621 | 99.40323 | 21999 ft | 451 kts | 68° |
| 2026-04-29 06:18 | 8.55790 | 99.43275 | 22364 ft | 452 kts | 66° |
| 2026-04-29 06:18 | 8.57326 | 99.46062 | 22618 ft | 457 kts | 53° |
| 2026-04-29 06:18 | 8.59457 | 99.48452 | 22957 ft | 459 kts | 41° |
| 2026-04-29 06:19 | 8.62029 | 99.50375 | 23322 ft | 459 kts | 31° |
| 2026-04-29 06:19 | 8.64798 | 99.52008 | 23613 ft | 462 kts | 30° |
| 2026-04-29 06:19 | 8.67596 | 99.53632 | 23911 ft | 466 kts | 30° |
| 2026-04-29 06:19 | 8.70374 | 99.55252 | 24254 ft | 468 kts | 30° |
| 2026-04-29 06:20 | 8.73190 | 99.56912 | 24608 ft | 469 kts | 30° |
| 2026-04-29 06:20 | 8.76011 | 99.58592 | 24942 ft | 472 kts | 30° |
| 2026-04-29 06:20 | 8.78844 | 99.60290 | 25254 ft | 474 kts | 31° |
| 2026-04-29 06:20 | 8.81687 | 99.62001 | 25573 ft | 476 kts | 31° |
| 2026-04-29 06:21 | 8.84542 | 99.63722 | 25872 ft | 478 kts | 31° |
| 2026-04-29 06:21 | 8.87411 | 99.65452 | 26181 ft | 481 kts | 31° |
| 2026-04-29 06:21 | 8.90290 | 99.67188 | 26464 ft | 483 kts | 31° |
| 2026-04-29 06:21 | 8.93182 | 99.68931 | 26740 ft | 485 kts | 31° |
| 2026-04-29 06:22 | 8.96090 | 99.70683 | 27027 ft | 487 kts | 31° |
| 2026-04-29 06:22 | 8.99010 | 99.72443 | 27296 ft | 489 kts | 31° |
| 2026-04-29 06:22 | 9.01937 | 99.74208 | 27555 ft | 491 kts | 31° |
| 2026-04-29 06:22 | 9.04874 | 99.75979 | 27804 ft | 493 kts | 31° |
| 2026-04-29 06:23 | 9.07822 | 99.77758 | 28042 ft | 494 kts | 31° |
| 2026-04-29 06:23 | 9.10782 | 99.79543 | 28285 ft | 496 kts | 31° |
| 2026-04-29 06:23 | 9.13722 | 99.81317 | 28482 ft | 498 kts | 31° |
| 2026-04-29 06:23 | 9.16704 | 99.83122 | 28713 ft | 500 kts | 31° |
| 2026-04-29 06:24 | 9.19690 | 99.84934 | 28929 ft | 501 kts | 31° |
| 2026-04-29 06:24 | 9.22687 | 99.86753 | 29141 ft | 503 kts | 31° |
| 2026-04-29 06:24 | 9.25698 | 99.88581 | 29346 ft | 504 kts | 31° |
| 2026-04-29 06:24 | 9.28719 | 99.90415 | 29510 ft | 506 kts | 31° |
| 2026-04-29 06:25 | 9.31737 | 99.92247 | 29697 ft | 507 kts | 31° |
| 2026-04-29 06:25 | 9.34733 | 99.94066 | 29865 ft | 508 kts | 31° |
| 2026-04-29 06:25 | 9.37775 | 99.95913 | 30046 ft | 509 kts | 31° |
| 2026-04-29 06:25 | 9.40821 | 99.97764 | 30192 ft | 511 kts | 31° |
| 2026-04-29 06:26 | 9.43870 | 99.99616 | 30340 ft | 512 kts | 31° |
| 2026-04-29 06:26 | 9.46931 | 100.01476 | 30507 ft | 512 kts | 31° |
| 2026-04-29 06:26 | 9.49982 | 100.03345 | 30743 ft | 510 kts | 33° |
| 2026-04-29 06:26 | 9.52730 | 100.05537 | 30871 ft | 510 kts | 45° |
| 2026-04-29 06:27 | 9.55032 | 100.08325 | 31088 ft | 509 kts | 56° |
| 2026-04-29 06:27 | 9.56757 | 100.11375 | 31432 ft | 504 kts | 67° |
| 2026-04-29 06:27 | 9.57977 | 100.14719 | 31891 ft | 495 kts | 71° |
| 2026-04-29 06:27 | 9.59081 | 100.17961 | 32229 ft | 492 kts | 71° |
| 2026-04-29 06:28 | 9.60223 | 100.21238 | 32390 ft | 493 kts | 70° |
| 2026-04-29 06:28 | 9.61400 | 100.24509 | 32486 ft | 495 kts | 70° |
| 2026-04-29 06:28 | 9.63809 | 100.31071 | 32605 ft | 499 kts | 70° |
| 2026-04-29 06:29 | 9.66215 | 100.37716 | 32654 ft | 504 kts | 70° |
| 2026-04-29 06:29 | 9.68646 | 100.44422 | 32689 ft | 509 kts | 68° |
| 2026-04-29 06:30 | 9.73915 | 100.53812 | 32736 ft | 515 kts | 51° |
| 2026-04-29 06:31 | 9.78451 | 100.59394 | 32771 ft | 518 kts | 50° |
| 2026-04-29 06:31 | 9.83084 | 100.65012 | 32798 ft | 521 kts | 50° |
| 2026-04-29 06:32 | 9.87702 | 100.70686 | 32930 ft | 521 kts | 51° |
| 2026-04-29 06:32 | 9.92286 | 100.76365 | 33109 ft | 520 kts | 51° |
| 2026-04-29 06:33 | 9.96867 | 100.82048 | 33236 ft | 520 kts | 51° |
| 2026-04-29 06:33 | 10.01418 | 100.87692 | 33375 ft | 519 kts | 51° |
| 2026-04-29 06:34 | 10.05989 | 100.93362 | 33504 ft | 519 kts | 51° |
| 2026-04-29 06:34 | 10.10561 | 100.99035 | 33632 ft | 519 kts | 51° |
| 2026-04-29 06:35 | 10.15132 | 101.04710 | 33733 ft | 519 kts | 51° |
| 2026-04-29 06:35 | 10.19696 | 101.10380 | 33869 ft | 518 kts | 51° |
| 2026-04-29 06:36 | 10.24187 | 101.16086 | 33982 ft | 516 kts | 52° |
| 2026-04-29 06:36 | 10.28514 | 101.21906 | 33994 ft | 515 kts | 53° |
| 2026-04-29 06:37 | 10.30016 | 101.23929 | 33996 ft | 515 kts | 53° |
| 2026-04-29 06:37 | 10.34358 | 101.29719 | 34003 ft | 514 kts | 52° |
| 2026-04-29 06:38 | 10.38680 | 101.35451 | 34001 ft | 514 kts | 52° |
| 2026-04-29 06:38 | 10.43038 | 101.41211 | 34002 ft | 514 kts | 52° |
| 2026-04-29 06:39 | 10.47390 | 101.46969 | 34001 ft | 513 kts | 52° |
| 2026-04-29 06:39 | 10.51736 | 101.52726 | 34002 ft | 513 kts | 52° |
| 2026-04-29 06:40 | 10.56080 | 101.58485 | 34002 ft | 513 kts | 52° |
| 2026-04-29 06:40 | 10.60422 | 101.64244 | 34000 ft | 513 kts | 52° |
| 2026-04-29 06:41 | 10.64765 | 101.70008 | 34002 ft | 513 kts | 52° |
| 2026-04-29 06:41 | 10.69104 | 101.75769 | 34002 ft | 513 kts | 52° |
| 2026-04-29 06:42 | 10.73439 | 101.81529 | 34000 ft | 513 kts | 52° |
| 2026-04-29 06:42 | 10.77751 | 101.87262 | 34002 ft | 513 kts | 52° |
| 2026-04-29 06:43 | 10.82078 | 101.93034 | 34002 ft | 513 kts | 53° |
| 2026-04-29 06:43 | 10.86395 | 101.98804 | 34002 ft | 513 kts | 53° |
| 2026-04-29 06:44 | 10.90728 | 102.04596 | 34011 ft | 515 kts | 53° |
| 2026-04-29 06:44 | 10.95082 | 102.10418 | 34026 ft | 517 kts | 53° |
| 2026-04-29 06:45 | 10.99438 | 102.16247 | 34061 ft | 518 kts | 53° |
| 2026-04-29 06:45 | 11.03771 | 102.22048 | 34163 ft | 518 kts | 53° |
| 2026-04-29 06:46 | 11.08130 | 102.27892 | 34264 ft | 517 kts | 53° |
| 2026-04-29 06:46 | 11.12445 | 102.33701 | 34338 ft | 517 kts | 53° |
| 2026-04-29 06:47 | 11.16778 | 102.39543 | 34424 ft | 517 kts | 53° |
| 2026-04-29 06:47 | 11.21118 | 102.45396 | 34497 ft | 517 kts | 53° |
| 2026-04-29 06:48 | 11.25416 | 102.51193 | 34583 ft | 517 kts | 53° |
| 2026-04-29 06:48 | 11.29751 | 102.57043 | 34639 ft | 516 kts | 53° |
| 2026-04-29 06:49 | 11.34076 | 102.62884 | 34700 ft | 516 kts | 53° |
| 2026-04-29 06:49 | 11.38405 | 102.68733 | 34762 ft | 516 kts | 53° |
| 2026-04-29 06:50 | 11.42737 | 102.74589 | 34805 ft | 516 kts | 53° |
| 2026-04-29 06:50 | 11.47038 | 102.80407 | 34953 ft | 512 kts | 53° |
| 2026-04-29 06:51 | 11.51318 | 102.86202 | 35002 ft | 511 kts | 53° |
| 2026-04-29 06:51 | 11.55568 | 102.91958 | 35006 ft | 511 kts | 53° |
| 2026-04-29 06:52 | 11.59849 | 102.97758 | 35008 ft | 512 kts | 53° |
| 2026-04-29 06:52 | 11.64351 | 103.03391 | 35005 ft | 513 kts | 48° |
| 2026-04-29 06:53 | 11.69117 | 103.08814 | 35005 ft | 513 kts | 48° |
| 2026-04-29 06:53 | 11.73091 | 103.13324 | 35002 ft | 514 kts | 48° |
| 2026-04-29 06:54 | 11.82772 | 103.24435 | 35005 ft | 515 kts | 48° |
| 2026-04-29 06:55 | 11.87155 | 103.29484 | 35001 ft | 515 kts | 48° |
| 2026-04-29 06:55 | 11.91908 | 103.34961 | 34997 ft | 516 kts | 48° |
| 2026-04-29 06:56 | 11.96668 | 103.40446 | 35002 ft | 516 kts | 48° |
| 2026-04-29 06:56 | 12.01433 | 103.45940 | 34985 ft | 516 kts | 48° |
| 2026-04-29 06:57 | 12.06189 | 103.51427 | 35004 ft | 515 kts | 49° |
| 2026-04-29 06:57 | 12.10937 | 103.56909 | 35004 ft | 515 kts | 49° |
| 2026-04-29 06:58 | 12.15681 | 103.62389 | 35001 ft | 515 kts | 49° |
| 2026-04-29 06:58 | 12.20423 | 103.67871 | 35007 ft | 514 kts | 49° |
| 2026-04-29 06:59 | 12.25157 | 103.73305 | 34998 ft | 514 kts | 47° |
| 2026-04-29 06:59 | 12.30072 | 103.78630 | 35003 ft | 514 kts | 46° |
| 2026-04-29 07:00 | 12.35003 | 103.83928 | 34998 ft | 514 kts | 46° |
| 2026-04-29 07:00 | 12.39904 | 103.89258 | 35003 ft | 514 kts | 47° |
| 2026-04-29 07:01 | 12.42320 | 103.91895 | 34994 ft | 514 kts | 47° |
| 2026-04-29 07:02 | 12.44609 | 103.94391 | 35004 ft | 514 kts | 47° |
| 2026-04-29 07:02 | 12.49469 | 103.99693 | 34986 ft | 514 kts | 47° |
| 2026-04-29 07:03 | 12.54358 | 104.05039 | 35009 ft | 514 kts | 47° |
| 2026-04-29 07:03 | 12.59242 | 104.10385 | 35003 ft | 514 kts | 47° |
| 2026-04-29 07:04 | 12.64127 | 104.15735 | 34998 ft | 514 kts | 47° |
| 2026-04-29 07:04 | 12.69011 | 104.21086 | 35006 ft | 514 kts | 47° |
| 2026-04-29 07:05 | 12.73893 | 104.26438 | 35002 ft | 514 kts | 47° |
| 2026-04-29 07:05 | 12.78748 | 104.31764 | 35001 ft | 514 kts | 47° |
| 2026-04-29 07:06 | 12.83628 | 104.37122 | 35003 ft | 514 kts | 47° |
| 2026-04-29 07:06 | 12.88510 | 104.42482 | 35003 ft | 514 kts | 47° |
| 2026-04-29 07:07 | 12.90213 | 104.44351 | 35001 ft | 514 kts | 47° |
| 2026-04-29 07:07 | 12.95096 | 104.49711 | 35005 ft | 514 kts | 47° |
| 2026-04-29 07:08 | 12.99975 | 104.55074 | 35006 ft | 514 kts | 47° |
| 2026-04-29 07:08 | 13.04859 | 104.60445 | 34998 ft | 514 kts | 47° |
| 2026-04-29 07:09 | 13.09716 | 104.65791 | 35003 ft | 515 kts | 47° |
| 2026-04-29 07:09 | 13.14594 | 104.71164 | 35005 ft | 515 kts | 47° |
| 2026-04-29 07:10 | 13.19476 | 104.76544 | 35003 ft | 515 kts | 47° |
| 2026-04-29 07:10 | 13.24353 | 104.81921 | 35004 ft | 514 kts | 47° |
| 2026-04-29 07:11 | 13.29224 | 104.87296 | 35004 ft | 514 kts | 47° |
| 2026-04-29 07:11 | 13.34103 | 104.92682 | 35006 ft | 514 kts | 47° |
| 2026-04-29 07:12 | 13.38979 | 104.98070 | 34985 ft | 514 kts | 47° |
| 2026-04-29 07:12 | 13.43854 | 105.03459 | 35004 ft | 514 kts | 47° |
| 2026-04-29 07:13 | 13.48694 | 105.08813 | 35003 ft | 514 kts | 47° |
| 2026-04-29 07:13 | 13.53561 | 105.14201 | 35003 ft | 514 kts | 47° |
| 2026-04-29 07:14 | 13.58430 | 105.19593 | 35005 ft | 514 kts | 47° |
| 2026-04-29 07:14 | 13.63290 | 105.24982 | 34999 ft | 514 kts | 47° |
| 2026-04-29 07:15 | 13.68156 | 105.30378 | 35005 ft | 514 kts | 47° |
| 2026-04-29 07:15 | 13.73023 | 105.35781 | 35005 ft | 514 kts | 47° |
| 2026-04-29 07:16 | 13.77885 | 105.41181 | 35004 ft | 514 kts | 47° |
| 2026-04-29 07:16 | 13.83016 | 105.46219 | 35004 ft | 513 kts | 40° |
| 2026-04-29 07:17 | 13.88515 | 105.50917 | 35001 ft | 514 kts | 39° |
| 2026-04-29 07:17 | 13.94016 | 105.55636 | 35004 ft | 514 kts | 40° |
| 2026-04-29 07:18 | 13.99477 | 105.60385 | 34998 ft | 514 kts | 40° |
| 2026-04-29 07:18 | 14.04932 | 105.65142 | 35002 ft | 514 kts | 40° |
| 2026-04-29 07:19 | 14.09468 | 105.69096 | 35003 ft | 514 kts | 40° |
| 2026-04-29 07:19 | 14.14916 | 105.73877 | 35001 ft | 514 kts | 40° |
| 2026-04-29 07:20 | 14.20647 | 105.78944 | 35004 ft | 514 kts | 40° |
| 2026-04-29 07:20 | 14.26046 | 105.83719 | 35000 ft | 514 kts | 40° |
| 2026-04-29 07:21 | 14.31480 | 105.88523 | 35009 ft | 514 kts | 40° |
| 2026-04-29 07:21 | 14.36909 | 105.93324 | 35001 ft | 514 kts | 40° |
| 2026-04-29 07:22 | 14.42343 | 105.98132 | 35005 ft | 514 kts | 40° |
| 2026-04-29 07:22 | 14.47775 | 106.02942 | 35002 ft | 514 kts | 40° |
| 2026-04-29 07:23 | 14.53208 | 106.07756 | 34999 ft | 514 kts | 40° |
| 2026-04-29 07:23 | 14.58638 | 106.12571 | 35000 ft | 514 kts | 40° |
| 2026-04-29 07:24 | 14.64066 | 106.17388 | 35001 ft | 514 kts | 40° |
| 2026-04-29 07:24 | 14.69492 | 106.22206 | 35000 ft | 514 kts | 40° |
| 2026-04-29 07:25 | 14.74884 | 106.26997 | 35000 ft | 514 kts | 40° |
| 2026-04-29 07:25 | 14.80308 | 106.31821 | 35001 ft | 514 kts | 40° |
| 2026-04-29 07:26 | 14.85730 | 106.36645 | 35002 ft | 514 kts | 40° |
| 2026-04-29 07:26 | 14.91151 | 106.41476 | 35001 ft | 514 kts | 41° |
| 2026-04-29 07:27 | 14.96534 | 106.46284 | 35001 ft | 514 kts | 41° |
| 2026-04-29 07:27 | 15.01952 | 106.51128 | 35003 ft | 514 kts | 41° |
| 2026-04-29 07:28 | 15.07367 | 106.55972 | 35002 ft | 514 kts | 41° |
| 2026-04-29 07:28 | 15.12782 | 106.60819 | 35006 ft | 514 kts | 41° |
| 2026-04-29 07:29 | 15.18195 | 106.65668 | 35002 ft | 514 kts | 41° |
| 2026-04-29 07:29 | 15.23613 | 106.70524 | 34996 ft | 514 kts | 41° |
| 2026-04-29 07:30 | 15.28991 | 106.75348 | 35004 ft | 514 kts | 41° |
| 2026-04-29 07:30 | 15.34403 | 106.80207 | 34999 ft | 515 kts | 41° |
| 2026-04-29 07:31 | 15.42530 | 106.87508 | 35003 ft | 515 kts | 41° |
| 2026-04-29 07:31 | 15.47944 | 106.92377 | 35001 ft | 515 kts | 41° |
| 2026-04-29 07:32 | 15.53350 | 106.97242 | 35003 ft | 515 kts | 41° |
| 2026-04-29 07:32 | 15.58722 | 107.02080 | 34998 ft | 515 kts | 41° |
| 2026-04-29 07:33 | 15.64130 | 107.06955 | 35004 ft | 515 kts | 41° |
| 2026-04-29 07:33 | 15.69534 | 107.11829 | 35003 ft | 514 kts | 41° |
| 2026-04-29 07:34 | 15.74668 | 107.16924 | 35004 ft | 513 kts | 52° |
| 2026-04-29 07:34 | 15.78239 | 107.23307 | 35012 ft | 512 kts | 69° |
| 2026-04-29 07:35 | 15.80291 | 107.30368 | 35004 ft | 511 kts | 75° |
| 2026-04-29 07:35 | 15.82216 | 107.37483 | 34996 ft | 512 kts | 74° |
| 2026-04-29 07:36 | 15.84216 | 107.44590 | 35003 ft | 513 kts | 73° |
| 2026-04-29 07:36 | 15.85578 | 107.49348 | 35005 ft | 514 kts | 73° |
| 2026-04-29 07:37 | 15.86953 | 107.54148 | 35001 ft | 514 kts | 73° |
| 2026-04-29 07:37 | 15.88974 | 107.61235 | 34996 ft | 515 kts | 73° |
| 2026-04-29 07:38 | 15.90997 | 107.68376 | 35002 ft | 515 kts | 74° |
| 2026-04-29 07:38 | 15.92962 | 107.75549 | 35004 ft | 516 kts | 74° |
| 2026-04-29 07:39 | 15.94915 | 107.82714 | 34999 ft | 515 kts | 74° |
| 2026-04-29 07:39 | 15.96883 | 107.89889 | 35008 ft | 515 kts | 74° |
| 2026-04-29 07:40 | 15.98896 | 107.97039 | 35001 ft | 515 kts | 73° |
| 2026-04-29 07:40 | 16.00902 | 108.04132 | 34987 ft | 515 kts | 74° |
| 2026-04-29 07:41 | 16.02909 | 108.11271 | 35006 ft | 514 kts | 74° |
| 2026-04-29 07:41 | 16.05138 | 108.18334 | 35002 ft | 514 kts | 66° |
| 2026-04-29 07:42 | 16.08464 | 108.24908 | 35000 ft | 514 kts | 56° |
| 2026-04-29 07:42 | 16.12484 | 108.31046 | 34998 ft | 513 kts | 56° |
| 2026-04-29 07:43 | 16.16517 | 108.37178 | 35006 ft | 513 kts | 56° |
| 2026-04-29 07:43 | 16.20477 | 108.43292 | 35003 ft | 513 kts | 56° |
| 2026-04-29 07:44 | 16.24450 | 108.49467 | 35001 ft | 513 kts | 56° |
| 2026-04-29 07:44 | 16.28419 | 108.55639 | 35003 ft | 513 kts | 56° |
| 2026-04-29 07:45 | 16.32396 | 108.61824 | 35004 ft | 514 kts | 56° |
| 2026-04-29 07:45 | 16.36387 | 108.68016 | 35002 ft | 514 kts | 56° |
| 2026-04-29 07:46 | 16.40473 | 108.74127 | 35001 ft | 514 kts | 55° |
| 2026-04-29 07:46 | 16.44591 | 108.80228 | 35004 ft | 514 kts | 55° |
| 2026-04-29 07:47 | 16.48659 | 108.86298 | 34991 ft | 514 kts | 55° |
| 2026-04-29 07:47 | 16.52751 | 108.92429 | 35003 ft | 514 kts | 55° |
| 2026-04-29 07:48 | 16.56836 | 108.98557 | 35001 ft | 514 kts | 56° |
| 2026-04-29 07:48 | 16.60851 | 109.04727 | 35000 ft | 514 kts | 56° |
| 2026-04-29 07:49 | 16.64822 | 109.10891 | 35004 ft | 514 kts | 56° |
| 2026-04-29 07:49 | 16.68816 | 109.17075 | 35002 ft | 514 kts | 56° |
| 2026-04-29 07:50 | 16.72819 | 109.23265 | 35003 ft | 514 kts | 56° |
| 2026-04-29 07:50 | 16.76823 | 109.29460 | 35001 ft | 514 kts | 56° |
| 2026-04-29 07:51 | 16.80821 | 109.35653 | 35002 ft | 514 kts | 56° |
| 2026-04-29 07:51 | 16.84820 | 109.41849 | 34997 ft | 514 kts | 56° |
| 2026-04-29 07:52 | 16.88830 | 109.48036 | 35003 ft | 514 kts | 56° |
| 2026-04-29 07:52 | 16.92164 | 109.53179 | 35004 ft | 514 kts | 56° |
| 2026-04-29 07:53 | 16.96175 | 109.59374 | 34998 ft | 514 kts | 56° |
| 2026-04-29 07:53 | 17.00178 | 109.65568 | 35001 ft | 514 kts | 56° |
| 2026-04-29 07:54 | 17.04182 | 109.71771 | 35004 ft | 514 kts | 56° |
| 2026-04-29 07:54 | 17.08184 | 109.77975 | 35000 ft | 514 kts | 56° |
| 2026-04-29 07:55 | 17.12156 | 109.84137 | 34999 ft | 514 kts | 56° |
| 2026-04-29 07:55 | 17.16154 | 109.90345 | 35002 ft | 514 kts | 56° |
| 2026-04-29 07:56 | 17.20148 | 109.96553 | 34995 ft | 514 kts | 56° |
| 2026-04-29 07:56 | 17.24140 | 110.02764 | 35002 ft | 514 kts | 56° |
| 2026-04-29 07:57 | 17.28130 | 110.08977 | 35004 ft | 514 kts | 56° |
| 2026-04-29 07:57 | 17.32119 | 110.15194 | 35004 ft | 514 kts | 56° |
| 2026-04-29 07:58 | 17.36077 | 110.21370 | 34997 ft | 514 kts | 56° |
| 2026-04-29 07:58 | 17.40060 | 110.27591 | 34998 ft | 514 kts | 56° |
| 2026-04-29 07:59 | 17.44055 | 110.33804 | 35004 ft | 514 kts | 56° |
| 2026-04-29 07:59 | 17.48091 | 110.40008 | 35003 ft | 514 kts | 56° |
| 2026-04-29 08:00 | 17.52122 | 110.46200 | 35002 ft | 514 kts | 56° |
| 2026-04-29 08:00 | 17.56123 | 110.52366 | 35002 ft | 514 kts | 56° |
| 2026-04-29 08:01 | 17.60140 | 110.58569 | 35001 ft | 514 kts | 56° |
| 2026-04-29 08:01 | 17.64156 | 110.64777 | 35002 ft | 514 kts | 56° |
| 2026-04-29 08:02 | 17.68171 | 110.70988 | 35001 ft | 514 kts | 56° |
| 2026-04-29 08:02 | 17.72186 | 110.77204 | 33809 ft | 513 kts | 56° |
| 2026-04-29 08:03 | 17.74184 | 110.80300 | 34053 ft | 511 kts | 56° |
| 2026-04-29 08:03 | 17.76151 | 110.83351 | 34262 ft | 509 kts | 56° |
| 2026-04-29 08:03 | 17.78131 | 110.86421 | 34476 ft | 508 kts | 56° |
| 2026-04-29 08:03 | 17.80108 | 110.89489 | 34651 ft | 507 kts | 56° |
| 2026-04-29 08:04 | 17.84074 | 110.95646 | 34808 ft | 510 kts | 56° |
| 2026-04-29 08:04 | 17.88070 | 111.01856 | 34886 ft | 515 kts | 56° |
| 2026-04-29 08:05 | 17.92072 | 111.08082 | 34895 ft | 520 kts | 56° |
| 2026-04-29 08:05 | 17.96142 | 111.14419 | 34899 ft | 526 kts | 56° |
| 2026-04-29 08:06 | 18.00261 | 111.20839 | 34892 ft | 530 kts | 56° |
| 2026-04-29 08:06 | 18.03706 | 111.26214 | 34884 ft | 534 kts | 56° |
| 2026-04-29 08:07 | 18.05633 | 111.29221 | 34895 ft | 536 kts | 56° |
| 2026-04-29 08:07 | 18.09807 | 111.35743 | 34894 ft | 540 kts | 56° |
| 2026-04-29 08:08 | 18.14005 | 111.42308 | 34893 ft | 543 kts | 56° |
| 2026-04-29 08:08 | 18.18230 | 111.48921 | 34902 ft | 546 kts | 56° |
| 2026-04-29 08:09 | 18.22472 | 111.55568 | 34900 ft | 548 kts | 56° |
| 2026-04-29 08:09 | 18.26731 | 111.62249 | 34898 ft | 550 kts | 56° |
| 2026-04-29 08:10 | 18.30997 | 111.68948 | 34890 ft | 552 kts | 56° |
| 2026-04-29 08:10 | 18.35274 | 111.75670 | 34879 ft | 553 kts | 56° |
| 2026-04-29 08:11 | 18.39550 | 111.82398 | 34880 ft | 553 kts | 56° |
| 2026-04-29 08:11 | 18.43824 | 111.89130 | 34899 ft | 553 kts | 56° |
| 2026-04-29 08:12 | 18.48066 | 111.95820 | 34900 ft | 552 kts | 56° |
| 2026-04-29 08:12 | 18.52328 | 112.02548 | 34881 ft | 552 kts | 56° |
| 2026-04-29 08:13 | 18.56585 | 112.09275 | 34887 ft | 552 kts | 56° |
| 2026-04-29 08:13 | 18.60837 | 112.16003 | 34903 ft | 551 kts | 56° |
| 2026-04-29 08:14 | 18.65092 | 112.22740 | 34885 ft | 551 kts | 56° |
| 2026-04-29 08:14 | 18.68939 | 112.29733 | 34888 ft | 551 kts | 62° |
| 2026-04-29 08:15 | 18.72463 | 112.36921 | 34885 ft | 551 kts | 63° |
| 2026-04-29 08:15 | 18.75974 | 112.44109 | 34909 ft | 551 kts | 63° |
| 2026-04-29 08:16 | 18.79525 | 112.51296 | 34891 ft | 552 kts | 62° |
| 2026-04-29 08:16 | 18.83072 | 112.58438 | 34891 ft | 553 kts | 62° |
| 2026-04-29 08:17 | 18.86642 | 112.65631 | 34905 ft | 553 kts | 63° |
| 2026-04-29 08:17 | 18.90210 | 112.72837 | 34910 ft | 554 kts | 63° |
| 2026-04-29 08:18 | 18.93780 | 112.80060 | 34887 ft | 554 kts | 63° |
| 2026-04-29 08:18 | 18.97345 | 112.87281 | 34890 ft | 554 kts | 63° |
| 2026-04-29 08:19 | 19.00912 | 112.94515 | 34907 ft | 554 kts | 63° |
| 2026-04-29 08:19 | 19.04450 | 113.01698 | 34888 ft | 555 kts | 63° |
| 2026-04-29 08:20 | 19.08012 | 113.08939 | 34890 ft | 555 kts | 63° |
| 2026-04-29 08:20 | 19.11566 | 113.16173 | 34911 ft | 554 kts | 63° |
| 2026-04-29 08:21 | 19.15121 | 113.23418 | 34891 ft | 555 kts | 63° |
| 2026-04-29 08:21 | 19.18676 | 113.30671 | 34893 ft | 555 kts | 63° |
| 2026-04-29 08:22 | 19.22226 | 113.37924 | 34892 ft | 555 kts | 63° |
| 2026-04-29 08:22 | 19.25773 | 113.45180 | 34887 ft | 555 kts | 63° |
| 2026-04-29 08:23 | 19.29314 | 113.52432 | 34899 ft | 555 kts | 63° |
| 2026-04-29 08:23 | 19.32838 | 113.59657 | 34894 ft | 555 kts | 63° |
| 2026-04-29 08:24 | 19.36381 | 113.66931 | 34886 ft | 555 kts | 63° |
| 2026-04-29 08:24 | 19.39921 | 113.74209 | 34890 ft | 556 kts | 63° |
| 2026-04-29 08:25 | 19.43463 | 113.81497 | 34907 ft | 556 kts | 63° |
| 2026-04-29 08:25 | 19.46979 | 113.88744 | 34886 ft | 556 kts | 63° |
| 2026-04-29 08:26 | 19.50513 | 113.96037 | 34892 ft | 556 kts | 63° |
| 2026-04-29 08:26 | 19.54043 | 114.03330 | 34891 ft | 556 kts | 63° |
| 2026-04-29 08:27 | 19.57558 | 114.10600 | 34889 ft | 556 kts | 63° |
| 2026-04-29 08:27 | 19.61079 | 114.17894 | 34887 ft | 556 kts | 63° |
| 2026-04-29 08:28 | 19.64598 | 114.25194 | 34898 ft | 556 kts | 63° |
| 2026-04-29 08:28 | 19.68124 | 114.32517 | 34890 ft | 556 kts | 63° |
| 2026-04-29 08:29 | 19.71645 | 114.39839 | 34889 ft | 556 kts | 63° |
| 2026-04-29 08:29 | 19.75166 | 114.47165 | 34907 ft | 556 kts | 63° |
| 2026-04-29 08:30 | 19.80417 | 114.58111 | 34903 ft | 556 kts | 63° |
| 2026-04-29 08:31 | 19.83926 | 114.65441 | 34901 ft | 556 kts | 63° |
| 2026-04-29 08:31 | 19.87421 | 114.72752 | 34890 ft | 557 kts | 63° |
| 2026-04-29 08:32 | 19.90923 | 114.80085 | 34892 ft | 557 kts | 63° |
| 2026-04-29 08:32 | 19.94427 | 114.87434 | 34906 ft | 556 kts | 63° |
| 2026-04-29 08:33 | 19.97922 | 114.94771 | 34904 ft | 556 kts | 63° |
| 2026-04-29 08:33 | 20.01417 | 115.02119 | 34889 ft | 557 kts | 63° |
| 2026-04-29 08:34 | 20.04891 | 115.09432 | 34889 ft | 557 kts | 63° |
| 2026-04-29 08:34 | 20.08384 | 115.16795 | 34906 ft | 557 kts | 63° |
| 2026-04-29 08:35 | 20.11871 | 115.24155 | 34891 ft | 557 kts | 63° |
| 2026-04-29 08:35 | 20.15354 | 115.31518 | 34886 ft | 557 kts | 63° |
| 2026-04-29 08:36 | 20.18838 | 115.38892 | 34907 ft | 557 kts | 63° |
| 2026-04-29 08:36 | 20.22318 | 115.46267 | 34893 ft | 558 kts | 63° |
| 2026-04-29 08:37 | 20.23521 | 115.48820 | 34911 ft | 558 kts | 63° |
| 2026-04-29 08:37 | 20.27004 | 115.56208 | 34893 ft | 558 kts | 63° |
| 2026-04-29 08:38 | 20.30491 | 115.63610 | 34890 ft | 559 kts | 63° |
| 2026-04-29 08:38 | 20.33973 | 115.71011 | 34911 ft | 559 kts | 63° |
| 2026-04-29 08:39 | 20.37452 | 115.78420 | 34897 ft | 559 kts | 63° |
| 2026-04-29 08:39 | 20.40931 | 115.85839 | 34890 ft | 560 kts | 63° |
| 2026-04-29 08:40 | 20.44409 | 115.93266 | 34913 ft | 560 kts | 63° |
| 2026-04-29 08:40 | 20.47298 | 115.99443 | 34891 ft | 560 kts | 63° |
| 2026-04-29 08:41 | 20.50778 | 116.06891 | 34895 ft | 560 kts | 63° |
| 2026-04-29 08:41 | 20.54248 | 116.14331 | 34908 ft | 560 kts | 63° |
| 2026-04-29 08:42 | 20.57694 | 116.21728 | 34893 ft | 561 kts | 63° |
| 2026-04-29 08:42 | 20.61164 | 116.29186 | 34892 ft | 561 kts | 63° |
| 2026-04-29 08:43 | 20.64631 | 116.36648 | 34912 ft | 561 kts | 63° |
| 2026-04-29 08:43 | 20.68101 | 116.44126 | 34892 ft | 561 kts | 63° |
| 2026-04-29 08:44 | 20.71562 | 116.51598 | 34894 ft | 561 kts | 63° |
| 2026-04-29 08:44 | 20.75024 | 116.59079 | 34897 ft | 561 kts | 63° |
| 2026-04-29 08:45 | 20.78480 | 116.66560 | 34896 ft | 561 kts | 64° |
| 2026-04-29 08:45 | 20.81935 | 116.74049 | 34897 ft | 561 kts | 64° |
| 2026-04-29 08:46 | 20.85388 | 116.81543 | 34897 ft | 561 kts | 64° |
| 2026-04-29 08:46 | 20.88810 | 116.88980 | 34896 ft | 561 kts | 64° |
| 2026-04-29 08:47 | 20.92251 | 116.96470 | 34897 ft | 561 kts | 64° |
| 2026-04-29 08:47 | 20.95694 | 117.03974 | 34898 ft | 561 kts | 64° |
| 2026-04-29 08:48 | 20.99126 | 117.11466 | 34900 ft | 561 kts | 64° |
| 2026-04-29 08:48 | 21.02562 | 117.18978 | 34897 ft | 561 kts | 64° |
| 2026-04-29 08:49 | 21.05986 | 117.26472 | 34898 ft | 560 kts | 64° |
| 2026-04-29 08:49 | 21.09410 | 117.33978 | 34898 ft | 560 kts | 64° |
| 2026-04-29 08:50 | 21.12829 | 117.41486 | 34899 ft | 560 kts | 64° |
| 2026-04-29 08:50 | 21.16158 | 117.49028 | 34898 ft | 560 kts | 68° |
| 2026-04-29 08:51 | 21.18494 | 117.56911 | 34899 ft | 559 kts | 77° |
| 2026-04-29 08:51 | 21.20333 | 117.65005 | 34893 ft | 559 kts | 77° |
| 2026-04-29 08:52 | 21.22195 | 117.73107 | 34900 ft | 559 kts | 76° |
| 2026-04-29 08:52 | 21.24102 | 117.81192 | 34897 ft | 560 kts | 76° |
| 2026-04-29 08:53 | 21.26026 | 117.89296 | 34901 ft | 560 kts | 76° |
| 2026-04-29 08:53 | 21.27941 | 117.97398 | 34899 ft | 560 kts | 76° |
| 2026-04-29 08:54 | 21.29848 | 118.05505 | 34898 ft | 560 kts | 76° |
| 2026-04-29 08:54 | 21.31750 | 118.13607 | 34897 ft | 560 kts | 76° |
| 2026-04-29 08:55 | 21.33634 | 118.21653 | 34907 ft | 560 kts | 76° |
| 2026-04-29 08:55 | 21.35527 | 118.29754 | 34896 ft | 560 kts | 76° |
| 2026-04-29 08:56 | 21.37415 | 118.37852 | 34898 ft | 559 kts | 76° |
| 2026-04-29 08:56 | 21.39300 | 118.45957 | 34901 ft | 559 kts | 76° |
| 2026-04-29 08:57 | 21.41178 | 118.54050 | 34906 ft | 559 kts | 76° |
| 2026-04-29 08:57 | 21.43052 | 118.62148 | 34903 ft | 558 kts | 76° |
| 2026-04-29 08:58 | 21.44920 | 118.70241 | 34902 ft | 558 kts | 76° |
| 2026-04-29 08:58 | 21.46768 | 118.78266 | 34901 ft | 558 kts | 76° |
| 2026-04-29 08:59 | 21.48627 | 118.86355 | 34910 ft | 557 kts | 76° |
| 2026-04-29 08:59 | 21.50479 | 118.94433 | 34902 ft | 557 kts | 76° |
| 2026-04-29 09:00 | 21.52328 | 119.02518 | 34899 ft | 557 kts | 76° |
| 2026-04-29 09:00 | 21.54171 | 119.10596 | 34908 ft | 557 kts | 76° |
| 2026-04-29 09:01 | 21.56010 | 119.18675 | 34903 ft | 557 kts | 76° |
| 2026-04-29 09:01 | 21.57847 | 119.26763 | 34901 ft | 557 kts | 76° |
| 2026-04-29 09:02 | 21.59668 | 119.34800 | 34912 ft | 557 kts | 76° |
| 2026-04-29 09:02 | 21.61497 | 119.42895 | 34906 ft | 557 kts | 76° |
| 2026-04-29 09:03 | 21.63326 | 119.51006 | 34909 ft | 558 kts | 76° |
| 2026-04-29 09:03 | 21.65142 | 119.59081 | 34911 ft | 558 kts | 76° |
| 2026-04-29 09:04 | 21.66965 | 119.67202 | 34900 ft | 559 kts | 76° |
| 2026-04-29 09:04 | 21.68783 | 119.75327 | 34903 ft | 559 kts | 76° |
| 2026-04-29 09:05 | 21.70599 | 119.83462 | 34913 ft | 559 kts | 76° |
| 2026-04-29 09:05 | 21.72411 | 119.91597 | 34918 ft | 559 kts | 76° |
| 2026-04-29 09:06 | 21.74205 | 119.99666 | 34901 ft | 559 kts | 76° |
| 2026-04-29 09:06 | 21.76011 | 120.07805 | 34911 ft | 558 kts | 76° |
| 2026-04-29 09:07 | 21.76557 | 120.10265 | 34911 ft | 558 kts | 76° |
| 2026-04-29 09:07 | 21.78337 | 120.18302 | 34911 ft | 558 kts | 76° |
| 2026-04-29 09:08 | 21.80132 | 120.26431 | 34908 ft | 558 kts | 76° |
| 2026-04-29 09:08 | 21.81922 | 120.34562 | 34916 ft | 558 kts | 76° |
| 2026-04-29 09:09 | 21.83698 | 120.42644 | 34907 ft | 558 kts | 76° |
| 2026-04-29 09:09 | 21.85480 | 120.50779 | 34915 ft | 558 kts | 76° |
| 2026-04-29 09:10 | 21.87259 | 120.58915 | 34916 ft | 558 kts | 77° |
| 2026-04-29 09:10 | 21.89032 | 120.67047 | 34914 ft | 558 kts | 77° |
| 2026-04-29 09:11 | 21.90803 | 120.75189 | 34912 ft | 558 kts | 77° |
| 2026-04-29 09:11 | 21.92593 | 120.83336 | 34907 ft | 558 kts | 75° |
| 2026-04-29 09:12 | 21.95081 | 120.91188 | 34912 ft | 557 kts | 68° |
| 2026-04-29 09:12 | 21.97922 | 120.98953 | 34909 ft | 558 kts | 68° |
| 2026-04-29 09:13 | 22.00762 | 121.06755 | 34897 ft | 558 kts | 68° |
| 2026-04-29 09:13 | 22.03555 | 121.14578 | 34895 ft | 559 kts | 68° |
| 2026-04-29 09:14 | 22.06308 | 121.22364 | 34903 ft | 559 kts | 68° |
| 2026-04-29 09:14 | 22.09075 | 121.30203 | 34896 ft | 559 kts | 68° |
| 2026-04-29 09:15 | 22.11844 | 121.38049 | 34899 ft | 559 kts | 68° |
| 2026-04-29 09:15 | 22.14610 | 121.45892 | 34899 ft | 560 kts | 68° |
| 2026-04-29 09:16 | 22.17377 | 121.53752 | 34891 ft | 560 kts | 68° |
| 2026-04-29 09:16 | 22.20119 | 121.61558 | 34894 ft | 560 kts | 68° |
| 2026-04-29 09:17 | 22.22881 | 121.69434 | 34897 ft | 560 kts | 68° |
| 2026-04-29 09:17 | 22.25639 | 121.77312 | 34895 ft | 560 kts | 68° |
| 2026-04-29 09:18 | 22.28388 | 121.85177 | 34898 ft | 560 kts | 68° |
| 2026-04-29 09:18 | 22.31135 | 121.93052 | 34897 ft | 560 kts | 68° |
| 2026-04-29 09:19 | 22.33879 | 122.00934 | 34899 ft | 561 kts | 68° |
| 2026-04-29 09:19 | 22.36623 | 122.08828 | 34905 ft | 561 kts | 68° |
| 2026-04-29 09:20 | 22.39347 | 122.16680 | 34905 ft | 562 kts | 68° |
| 2026-04-29 09:20 | 22.42088 | 122.24591 | 34892 ft | 562 kts | 68° |
| 2026-04-29 09:21 | 22.44824 | 122.32506 | 34889 ft | 562 kts | 68° |
| 2026-04-29 09:21 | 22.47559 | 122.40431 | 34909 ft | 563 kts | 68° |
| 2026-04-29 09:22 | 22.50294 | 122.48370 | 34897 ft | 563 kts | 68° |
| 2026-04-29 09:22 | 22.53024 | 122.56310 | 34895 ft | 563 kts | 68° |
| 2026-04-29 09:23 | 22.55752 | 122.64259 | 34899 ft | 564 kts | 69° |
| 2026-04-29 09:23 | 22.58463 | 122.72170 | 34906 ft | 564 kts | 69° |
| 2026-04-29 09:24 | 22.61187 | 122.80138 | 34901 ft | 564 kts | 69° |
| 2026-04-29 09:24 | 22.63906 | 122.88104 | 34901 ft | 565 kts | 69° |
| 2026-04-29 09:25 | 22.66626 | 122.96086 | 34923 ft | 565 kts | 69° |
| 2026-04-29 09:25 | 22.69342 | 123.04075 | 34910 ft | 565 kts | 69° |
| 2026-04-29 09:26 | 22.72062 | 123.12088 | 34912 ft | 566 kts | 69° |
| 2026-04-29 09:26 | 22.74774 | 123.20095 | 34920 ft | 566 kts | 69° |
| 2026-04-29 09:27 | 22.77549 | 123.28021 | 34913 ft | 565 kts | 66° |
| 2026-04-29 09:27 | 22.80640 | 123.35867 | 34916 ft | 565 kts | 65° |
| 2026-04-29 09:28 | 22.83795 | 123.43687 | 34919 ft | 566 kts | 65° |
| 2026-04-29 09:28 | 22.86391 | 123.50190 | 34920 ft | 566 kts | 65° |
| 2026-04-29 09:29 | 22.89996 | 123.59330 | 34925 ft | 567 kts | 65° |
| 2026-04-29 09:29 | 22.94117 | 123.69831 | 34925 ft | 568 kts | 65° |
| 2026-04-29 09:30 | 22.97209 | 123.77716 | 34929 ft | 568 kts | 65° |
| 2026-04-29 09:30 | 23.00307 | 123.85622 | 34930 ft | 569 kts | 65° |
| 2026-04-29 09:31 | 23.03399 | 123.93530 | 34932 ft | 569 kts | 65° |
| 2026-04-29 09:31 | 23.06490 | 124.01448 | 34932 ft | 569 kts | 65° |
| 2026-04-29 09:32 | 23.09556 | 124.09317 | 34935 ft | 569 kts | 65° |
| 2026-04-29 09:32 | 23.12648 | 124.17264 | 34938 ft | 569 kts | 65° |
| 2026-04-29 09:33 | 23.15728 | 124.25197 | 34935 ft | 569 kts | 65° |
| 2026-04-29 09:33 | 23.18804 | 124.33131 | 34938 ft | 569 kts | 65° |
| 2026-04-29 09:34 | 23.21874 | 124.41065 | 34941 ft | 569 kts | 66° |
| 2026-04-29 09:34 | 23.24921 | 124.48954 | 34945 ft | 569 kts | 66° |
| 2026-04-29 09:35 | 23.27983 | 124.56895 | 34942 ft | 569 kts | 66° |
| 2026-04-29 09:35 | 23.31045 | 124.64851 | 34946 ft | 569 kts | 66° |
| 2026-04-29 09:36 | 23.34096 | 124.72791 | 34946 ft | 569 kts | 66° |
| 2026-04-29 09:36 | 23.36631 | 124.79399 | 34950 ft | 569 kts | 66° |
| 2026-04-29 09:37 | 23.38032 | 124.83057 | 34949 ft | 568 kts | 66° |
| 2026-04-29 09:37 | 23.41077 | 124.91014 | 34952 ft | 568 kts | 66° |
| 2026-04-29 09:38 | 23.44116 | 124.98970 | 34951 ft | 568 kts | 66° |
| 2026-04-29 09:38 | 23.47149 | 125.06925 | 34955 ft | 568 kts | 66° |
| 2026-04-29 09:39 | 23.50158 | 125.14831 | 34956 ft | 568 kts | 66° |
| 2026-04-29 09:39 | 23.53183 | 125.22793 | 34957 ft | 568 kts | 66° |
| 2026-04-29 09:40 | 23.56666 | 125.30477 | 34947 ft | 564 kts | 54° |
| 2026-04-29 09:40 | 23.61560 | 125.37082 | 34963 ft | 557 kts | 41° |
| 2026-04-29 09:41 | 23.67400 | 125.42576 | 34960 ft | 554 kts | 36° |
| 2026-04-29 09:41 | 23.73330 | 125.47943 | 34963 ft | 554 kts | 36° |
| 2026-04-29 09:42 | 23.79230 | 125.53364 | 34963 ft | 555 kts | 37° |
| 2026-04-29 09:42 | 23.85097 | 125.58832 | 34962 ft | 555 kts | 37° |
| 2026-04-29 09:43 | 23.90928 | 125.64293 | 34962 ft | 555 kts | 37° |
| 2026-04-29 09:43 | 23.96798 | 125.69791 | 34961 ft | 556 kts | 37° |
| 2026-04-29 09:44 | 24.02673 | 125.75295 | 34967 ft | 556 kts | 37° |
| 2026-04-29 09:44 | 24.08550 | 125.80804 | 34964 ft | 557 kts | 37° |
| 2026-04-29 09:45 | 24.14443 | 125.86336 | 34961 ft | 557 kts | 37° |
| 2026-04-29 09:45 | 24.20328 | 125.91868 | 34965 ft | 557 kts | 37° |
| 2026-04-29 09:46 | 24.26175 | 125.97372 | 34968 ft | 557 kts | 37° |
| 2026-04-29 09:46 | 24.32057 | 126.02916 | 34971 ft | 557 kts | 37° |
| 2026-04-29 09:47 | 24.37935 | 126.08462 | 34968 ft | 557 kts | 37° |
| 2026-04-29 09:47 | 24.43809 | 126.14013 | 34968 ft | 556 kts | 37° |
| 2026-04-29 09:48 | 24.49675 | 126.19563 | 34970 ft | 556 kts | 37° |
| 2026-04-29 09:48 | 24.55503 | 126.25083 | 34969 ft | 556 kts | 37° |
| 2026-04-29 09:49 | 24.61360 | 126.30638 | 34970 ft | 556 kts | 38° |
| 2026-04-29 09:49 | 24.67220 | 126.36203 | 34970 ft | 556 kts | 38° |
| 2026-04-29 09:50 | 24.73072 | 126.41768 | 34975 ft | 556 kts | 38° |
| 2026-04-29 09:50 | 24.78897 | 126.47314 | 34973 ft | 556 kts | 38° |
| 2026-04-29 09:51 | 24.84747 | 126.52891 | 34974 ft | 556 kts | 38° |
| 2026-04-29 09:51 | 24.90593 | 126.58472 | 34979 ft | 556 kts | 38° |
| 2026-04-29 09:52 | 24.96435 | 126.64056 | 34979 ft | 555 kts | 38° |
| 2026-04-29 09:52 | 25.02267 | 126.69637 | 34981 ft | 555 kts | 38° |
| 2026-04-29 09:53 | 25.08097 | 126.75225 | 34979 ft | 555 kts | 38° |
| 2026-04-29 09:53 | 25.13918 | 126.80811 | 34977 ft | 554 kts | 38° |
| 2026-04-29 09:54 | 25.19730 | 126.86396 | 34980 ft | 554 kts | 38° |
| 2026-04-29 09:54 | 25.25535 | 126.91981 | 34978 ft | 553 kts | 38° |
| 2026-04-29 09:55 | 25.31341 | 126.97574 | 34982 ft | 553 kts | 38° |
| 2026-04-29 09:55 | 25.37099 | 127.03129 | 34984 ft | 553 kts | 38° |
| 2026-04-29 09:56 | 25.42897 | 127.08730 | 34983 ft | 553 kts | 38° |
| 2026-04-29 09:56 | 25.48689 | 127.14332 | 34987 ft | 552 kts | 38° |
| 2026-04-29 09:57 | 25.54482 | 127.19943 | 34989 ft | 552 kts | 38° |
| 2026-04-29 09:57 | 25.60263 | 127.25550 | 34988 ft | 552 kts | 38° |
| 2026-04-29 09:58 | 25.66009 | 127.31129 | 34991 ft | 552 kts | 38° |
| 2026-04-29 09:58 | 25.71791 | 127.36753 | 34993 ft | 552 kts | 38° |
| 2026-04-29 09:59 | 25.77554 | 127.42364 | 34992 ft | 552 kts | 38° |
| 2026-04-29 09:59 | 25.83327 | 127.47993 | 34993 ft | 552 kts | 38° |
| 2026-04-29 10:00 | 25.89093 | 127.53623 | 34989 ft | 552 kts | 38° |
| 2026-04-29 10:00 | 25.94865 | 127.59267 | 34980 ft | 553 kts | 39° |
| 2026-04-29 10:01 | 26.00642 | 127.64923 | 34981 ft | 553 kts | 39° |
| 2026-04-29 10:01 | 26.06409 | 127.70578 | 34975 ft | 553 kts | 38° |
| 2026-04-29 10:02 | 26.12189 | 127.76253 | 34965 ft | 553 kts | 38° |
| 2026-04-29 10:02 | 26.17926 | 127.81869 | 35011 ft | 553 kts | 38° |
| 2026-04-29 10:03 | 26.23813 | 127.87381 | 35019 ft | 553 kts | 36° |
| 2026-04-29 10:03 | 26.29740 | 127.92847 | 34998 ft | 553 kts | 36° |
| 2026-04-29 10:04 | 26.35653 | 127.98340 | 35004 ft | 553 kts | 37° |
| 2026-04-29 10:04 | 26.41537 | 128.03847 | 35002 ft | 553 kts | 37° |
| 2026-04-29 10:05 | 26.47432 | 128.09380 | 35011 ft | 552 kts | 37° |
| 2026-04-29 10:05 | 26.53274 | 128.14868 | 35006 ft | 552 kts | 37° |
| 2026-04-29 10:06 | 26.59157 | 128.20399 | 35015 ft | 551 kts | 37° |
| 2026-04-29 10:06 | 26.63087 | 128.24098 | 35012 ft | 551 kts | 37° |
| 2026-04-29 10:07 | 26.66836 | 128.27630 | 35014 ft | 551 kts | 37° |
| 2026-04-29 10:07 | 26.72689 | 128.33151 | 35008 ft | 550 kts | 37° |
| 2026-04-29 10:08 | 26.78506 | 128.38646 | 35006 ft | 550 kts | 37° |
| 2026-04-29 10:08 | 26.84348 | 128.44172 | 35002 ft | 549 kts | 37° |
| 2026-04-29 10:09 | 26.90187 | 128.49702 | 35003 ft | 549 kts | 37° |
| 2026-04-29 10:09 | 26.96014 | 128.55229 | 35003 ft | 549 kts | 37° |
| 2026-04-29 10:10 | 27.01843 | 128.60766 | 35006 ft | 548 kts | 37° |
| 2026-04-29 10:10 | 27.07630 | 128.66271 | 35008 ft | 548 kts | 37° |
| 2026-04-29 10:11 | 27.13440 | 128.71805 | 35016 ft | 548 kts | 38° |
| 2026-04-29 10:11 | 27.19266 | 128.77363 | 35012 ft | 549 kts | 38° |
| 2026-04-29 10:12 | 27.25075 | 128.82912 | 35010 ft | 549 kts | 38° |
| 2026-04-29 10:12 | 27.30897 | 128.88482 | 35009 ft | 548 kts | 38° |
| 2026-04-29 10:13 | 27.36700 | 128.94042 | 35012 ft | 548 kts | 38° |
| 2026-04-29 10:13 | 27.42501 | 128.99608 | 35018 ft | 548 kts | 38° |
| 2026-04-29 10:14 | 27.48265 | 129.05146 | 35020 ft | 547 kts | 37° |
| 2026-04-29 10:14 | 27.53924 | 129.10873 | 35027 ft | 549 kts | 43° |
| 2026-04-29 10:15 | 27.58894 | 129.17437 | 35028 ft | 550 kts | 48° |
| 2026-04-29 10:15 | 27.63718 | 129.24142 | 35027 ft | 550 kts | 48° |
| 2026-04-29 10:16 | 27.67742 | 129.29702 | 35030 ft | 550 kts | 48° |
| 2026-04-29 10:16 | 27.73403 | 129.37447 | 35029 ft | 550 kts | 47° |
| 2026-04-29 10:17 | 27.78278 | 129.44097 | 35035 ft | 550 kts | 47° |
| 2026-04-29 10:17 | 27.82363 | 129.49680 | 35039 ft | 550 kts | 47° |
| 2026-04-29 10:18 | 27.87202 | 129.56309 | 35036 ft | 550 kts | 48° |
| 2026-04-29 10:18 | 27.92075 | 129.62997 | 35040 ft | 551 kts | 48° |
| 2026-04-29 10:19 | 27.96949 | 129.69699 | 35045 ft | 551 kts | 48° |
| 2026-04-29 10:19 | 28.01813 | 129.76396 | 35038 ft | 551 kts | 48° |
| 2026-04-29 10:20 | 28.06677 | 129.83104 | 35038 ft | 551 kts | 48° |
| 2026-04-29 10:20 | 28.11532 | 129.89810 | 35031 ft | 551 kts | 48° |
| 2026-04-29 10:21 | 28.16361 | 129.96490 | 35032 ft | 551 kts | 48° |
| 2026-04-29 10:21 | 28.21211 | 130.03210 | 35028 ft | 551 kts | 48° |
| 2026-04-29 10:22 | 28.26062 | 130.09942 | 35029 ft | 551 kts | 48° |
| 2026-04-29 10:22 | 28.30906 | 130.16675 | 35031 ft | 551 kts | 48° |
| 2026-04-29 10:23 | 28.35752 | 130.23421 | 35044 ft | 551 kts | 48° |
| 2026-04-29 10:23 | 28.40593 | 130.30172 | 35045 ft | 551 kts | 48° |
| 2026-04-29 10:24 | 28.45433 | 130.36932 | 35052 ft | 551 kts | 49° |
| 2026-04-29 10:24 | 28.50241 | 130.43657 | 35057 ft | 552 kts | 49° |
| 2026-04-29 10:25 | 28.55077 | 130.50433 | 35056 ft | 552 kts | 49° |
| 2026-04-29 10:25 | 28.59917 | 130.57227 | 35054 ft | 552 kts | 49° |
| 2026-04-29 10:26 | 28.64756 | 130.64028 | 35056 ft | 552 kts | 49° |
| 2026-04-29 10:26 | 28.69591 | 130.70836 | 35052 ft | 553 kts | 49° |
| 2026-04-29 10:27 | 28.76810 | 130.81021 | 35058 ft | 553 kts | 49° |
| 2026-04-29 10:28 | 28.81644 | 130.87855 | 35058 ft | 553 kts | 49° |
| 2026-04-29 10:28 | 28.86470 | 130.94690 | 35015 ft | 553 kts | 49° |
| 2026-04-29 10:29 | 28.91276 | 131.01506 | 35050 ft | 555 kts | 49° |
| 2026-04-29 10:29 | 28.96125 | 131.08392 | 35121 ft | 557 kts | 49° |
| 2026-04-29 10:30 | 29.00975 | 131.15295 | 35056 ft | 557 kts | 49° |
| 2026-04-29 10:30 | 29.05811 | 131.22190 | 35055 ft | 554 kts | 49° |
| 2026-04-29 10:31 | 29.10624 | 131.29063 | 35054 ft | 552 kts | 49° |
| 2026-04-29 10:31 | 29.15389 | 131.35878 | 35057 ft | 550 kts | 49° |
| 2026-04-29 10:32 | 29.20164 | 131.42718 | 35052 ft | 549 kts | 49° |
| 2026-04-29 10:32 | 29.24930 | 131.49556 | 35058 ft | 549 kts | 49° |
| 2026-04-29 10:33 | 29.29689 | 131.56396 | 35060 ft | 548 kts | 49° |
| 2026-04-29 10:33 | 29.34444 | 131.63243 | 35064 ft | 549 kts | 49° |
| 2026-04-29 10:34 | 29.39201 | 131.70102 | 35062 ft | 550 kts | 49° |
| 2026-04-29 10:34 | 29.43930 | 131.76934 | 35061 ft | 551 kts | 49° |
| 2026-04-29 10:35 | 29.48697 | 131.83832 | 35062 ft | 551 kts | 49° |
| 2026-04-29 10:35 | 29.53461 | 131.90737 | 35060 ft | 552 kts | 49° |
| 2026-04-29 10:36 | 29.58225 | 131.97655 | 35064 ft | 552 kts | 49° |
| 2026-04-29 10:36 | 29.62994 | 132.04592 | 35062 ft | 552 kts | 49° |
| 2026-04-29 10:37 | 29.64560 | 132.06873 | 35056 ft | 552 kts | 49° |
| 2026-04-29 10:37 | 29.69136 | 132.13423 | 35064 ft | 552 kts | 48° |
| 2026-04-29 10:38 | 29.74026 | 132.20233 | 35063 ft | 551 kts | 47° |
| 2026-04-29 10:38 | 29.78906 | 132.27030 | 35065 ft | 551 kts | 47° |
| 2026-04-29 10:39 | 29.83775 | 132.33859 | 35065 ft | 551 kts | 48° |
| 2026-04-29 10:39 | 29.88627 | 132.40697 | 35066 ft | 550 kts | 48° |
| 2026-04-29 10:40 | 29.93436 | 132.47488 | 35065 ft | 550 kts | 48° |
| 2026-04-29 10:40 | 29.98276 | 132.54330 | 35066 ft | 550 kts | 48° |
| 2026-04-29 10:41 | 30.03111 | 132.61175 | 35069 ft | 549 kts | 48° |
| 2026-04-29 10:41 | 30.07935 | 132.68015 | 35068 ft | 549 kts | 48° |
| 2026-04-29 10:42 | 30.12756 | 132.74864 | 35066 ft | 549 kts | 48° |
| 2026-04-29 10:42 | 30.17575 | 132.81722 | 35066 ft | 549 kts | 48° |
| 2026-04-29 10:43 | 30.22360 | 132.88543 | 35065 ft | 549 kts | 48° |
| 2026-04-29 10:43 | 30.27171 | 132.95413 | 35069 ft | 550 kts | 48° |
| 2026-04-29 10:44 | 30.31984 | 133.02297 | 35066 ft | 550 kts | 48° |
| 2026-04-29 10:44 | 30.36790 | 133.09185 | 35072 ft | 550 kts | 48° |
| 2026-04-29 10:45 | 30.41607 | 133.16097 | 35072 ft | 550 kts | 48° |
| 2026-04-29 10:45 | 30.46416 | 133.23013 | 35069 ft | 551 kts | 48° |
| 2026-04-29 10:46 | 30.51221 | 133.29934 | 35068 ft | 551 kts | 48° |
| 2026-04-29 10:46 | 30.55995 | 133.36823 | 35070 ft | 551 kts | 48° |
| 2026-04-29 10:47 | 30.60803 | 133.43773 | 35068 ft | 552 kts | 48° |
| 2026-04-29 10:47 | 30.65608 | 133.50732 | 35076 ft | 552 kts | 48° |
| 2026-04-29 10:48 | 30.70416 | 133.57707 | 35070 ft | 552 kts | 48° |
| 2026-04-29 10:48 | 30.75190 | 133.64644 | 35071 ft | 553 kts | 49° |
| 2026-04-29 10:49 | 30.79993 | 133.71637 | 35074 ft | 553 kts | 49° |
| 2026-04-29 10:49 | 30.84792 | 133.78633 | 35076 ft | 553 kts | 49° |
| 2026-04-29 10:50 | 30.89596 | 133.85648 | 35074 ft | 553 kts | 49° |
| 2026-04-29 10:50 | 30.94365 | 133.92626 | 35071 ft | 553 kts | 49° |
| 2026-04-29 10:51 | 30.99149 | 133.99641 | 35069 ft | 553 kts | 49° |
| 2026-04-29 10:51 | 31.03937 | 134.06674 | 35075 ft | 553 kts | 49° |
| 2026-04-29 10:52 | 31.08712 | 134.13700 | 35075 ft | 553 kts | 49° |
| 2026-04-29 10:52 | 31.13486 | 134.20737 | 35084 ft | 553 kts | 49° |
| 2026-04-29 10:53 | 31.18264 | 134.27793 | 35072 ft | 553 kts | 49° |
| 2026-04-29 10:53 | 31.23035 | 134.34851 | 35075 ft | 552 kts | 49° |
| 2026-04-29 10:54 | 31.27793 | 134.41903 | 35077 ft | 552 kts | 49° |
| 2026-04-29 10:54 | 31.32519 | 134.48920 | 35080 ft | 552 kts | 49° |
| 2026-04-29 10:55 | 31.37270 | 134.55988 | 35070 ft | 552 kts | 49° |
| 2026-04-29 10:55 | 31.42020 | 134.63066 | 35073 ft | 552 kts | 49° |
| 2026-04-29 10:56 | 31.46755 | 134.70136 | 35072 ft | 552 kts | 49° |
| 2026-04-29 10:56 | 31.51499 | 134.77232 | 35072 ft | 552 kts | 49° |
| 2026-04-29 10:57 | 31.56205 | 134.84283 | 35073 ft | 552 kts | 49° |
| 2026-04-29 10:57 | 31.60941 | 134.91394 | 35080 ft | 552 kts | 49° |
| 2026-04-29 10:58 | 31.65664 | 134.98499 | 35077 ft | 553 kts | 49° |
| 2026-04-29 10:58 | 31.70386 | 135.05613 | 35074 ft | 553 kts | 49° |
| 2026-04-29 10:59 | 31.75342 | 135.12499 | 35077 ft | 550 kts | 44° |
| 2026-04-29 10:59 | 31.80500 | 135.19151 | 35075 ft | 550 kts | 44° |
| 2026-04-29 11:00 | 31.85628 | 135.25764 | 35075 ft | 551 kts | 44° |
| 2026-04-29 11:00 | 31.90767 | 135.32466 | 35084 ft | 551 kts | 44° |
| 2026-04-29 11:01 | 31.95898 | 135.39198 | 35081 ft | 552 kts | 44° |
| 2026-04-29 11:01 | 32.01017 | 135.45928 | 35083 ft | 552 kts | 44° |
| 2026-04-29 11:02 | 32.06141 | 135.52671 | 35081 ft | 552 kts | 44° |
| 2026-04-29 11:02 | 32.11268 | 135.59427 | 35082 ft | 552 kts | 44° |
| 2026-04-29 11:03 | 32.16357 | 135.66146 | 35079 ft | 553 kts | 44° |
| 2026-04-29 11:03 | 32.21482 | 135.72926 | 35081 ft | 553 kts | 44° |
| 2026-04-29 11:04 | 32.26603 | 135.79713 | 35073 ft | 553 kts | 44° |
| 2026-04-29 11:04 | 32.31726 | 135.86516 | 35070 ft | 554 kts | 44° |
| 2026-04-29 11:05 | 32.36840 | 135.93320 | 35076 ft | 554 kts | 44° |
| 2026-04-29 11:05 | 32.41920 | 136.00123 | 35079 ft | 555 kts | 46° |
| 2026-04-29 11:06 | 32.46430 | 136.07590 | 35083 ft | 559 kts | 54° |
| 2026-04-29 11:06 | 32.49883 | 136.14085 | 35069 ft | 560 kts | 55° |
| 2026-04-29 11:07 | 32.51251 | 136.16680 | 35074 ft | 560 kts | 54° |
| 2026-04-29 11:07 | 32.55103 | 136.23930 | 35077 ft | 561 kts | 54° |
| 2026-04-29 11:08 | 32.59300 | 136.31739 | 35081 ft | 561 kts | 54° |
| 2026-04-29 11:08 | 32.63477 | 136.39485 | 35077 ft | 561 kts | 54° |
| 2026-04-29 11:09 | 32.67684 | 136.47308 | 35079 ft | 562 kts | 54° |
| 2026-04-29 11:09 | 32.71885 | 136.55143 | 35078 ft | 562 kts | 54° |
| 2026-04-29 11:10 | 32.76081 | 136.62991 | 35082 ft | 563 kts | 54° |
| 2026-04-29 11:10 | 32.80275 | 136.70851 | 35080 ft | 563 kts | 54° |
| 2026-04-29 11:11 | 32.84470 | 136.78728 | 35088 ft | 564 kts | 54° |
| 2026-04-29 11:11 | 32.88638 | 136.86572 | 35085 ft | 564 kts | 54° |
| 2026-04-29 11:12 | 32.92832 | 136.94481 | 35086 ft | 565 kts | 54° |
| 2026-04-29 11:12 | 32.97024 | 137.02402 | 35090 ft | 565 kts | 54° |
| 2026-04-29 11:13 | 33.01216 | 137.10342 | 35090 ft | 566 kts | 54° |
| 2026-04-29 11:13 | 33.05404 | 137.18291 | 35089 ft | 567 kts | 54° |
| 2026-04-29 11:14 | 33.09596 | 137.26265 | 35087 ft | 567 kts | 54° |
| 2026-04-29 11:14 | 33.13784 | 137.34250 | 35091 ft | 567 kts | 54° |
| 2026-04-29 11:15 | 33.17940 | 137.42189 | 35092 ft | 568 kts | 54° |
| 2026-04-29 11:15 | 33.22117 | 137.50204 | 35089 ft | 568 kts | 54° |
| 2026-04-29 11:16 | 33.26282 | 137.58231 | 35088 ft | 568 kts | 54° |
| 2026-04-29 11:16 | 33.30445 | 137.66272 | 35087 ft | 569 kts | 54° |
| 2026-04-29 11:17 | 33.34611 | 137.74332 | 35085 ft | 569 kts | 54° |
| 2026-04-29 11:17 | 33.38768 | 137.82394 | 35088 ft | 569 kts | 54° |
| 2026-04-29 11:18 | 33.42922 | 137.90465 | 35085 ft | 569 kts | 54° |
| 2026-04-29 11:18 | 33.47090 | 137.98520 | 35082 ft | 569 kts | 54° |
| 2026-04-29 11:19 | 33.51255 | 138.06530 | 35083 ft | 570 kts | 54° |
| 2026-04-29 11:19 | 33.55423 | 138.14603 | 35079 ft | 570 kts | 54° |
| 2026-04-29 11:20 | 33.59573 | 138.22726 | 35082 ft | 571 kts | 54° |
| 2026-04-29 11:20 | 33.63715 | 138.30854 | 35077 ft | 571 kts | 54° |
| 2026-04-29 11:21 | 33.67863 | 138.39002 | 35079 ft | 571 kts | 54° |
| 2026-04-29 11:21 | 33.72009 | 138.47162 | 35070 ft | 572 kts | 54° |
| 2026-04-29 11:22 | 33.76123 | 138.55274 | 35069 ft | 572 kts | 54° |
| 2026-04-29 11:22 | 33.80265 | 138.63455 | 35066 ft | 573 kts | 54° |
| 2026-04-29 11:23 | 33.84407 | 138.71656 | 35064 ft | 573 kts | 55° |
| 2026-04-29 11:23 | 33.88550 | 138.79878 | 35062 ft | 574 kts | 55° |
| 2026-04-29 11:24 | 33.92660 | 138.88056 | 35061 ft | 574 kts | 55° |
| 2026-04-29 11:24 | 33.96817 | 138.96347 | 35059 ft | 575 kts | 55° |
| 2026-04-29 11:25 | 34.00946 | 139.04598 | 35062 ft | 575 kts | 55° |
| 2026-04-29 11:25 | 34.05077 | 139.12873 | 35019 ft | 578 kts | 55° |
| 2026-04-29 11:26 | 34.11308 | 139.25392 | 35075 ft | 586 kts | 55° |
| 2026-04-29 11:26 | 34.15505 | 139.33846 | 35221 ft | 587 kts | 55° |
| 2026-04-29 11:27 | 34.17603 | 139.38076 | 35370 ft | 587 kts | 55° |
| 2026-04-29 11:27 | 34.19697 | 139.42302 | 35491 ft | 586 kts | 55° |
| 2026-04-29 11:27 | 34.21785 | 139.46523 | 35620 ft | 586 kts | 55° |
| 2026-04-29 11:27 | 34.23872 | 139.50746 | 35705 ft | 586 kts | 55° |
| 2026-04-29 11:28 | 34.25965 | 139.54985 | 35806 ft | 586 kts | 55° |
| 2026-04-29 11:28 | 34.28063 | 139.59240 | 35904 ft | 586 kts | 55° |
| 2026-04-29 11:28 | 34.30117 | 139.63413 | 36012 ft | 585 kts | 54° |
| 2026-04-29 11:28 | 34.32197 | 139.67644 | 36109 ft | 585 kts | 54° |
| 2026-04-29 11:29 | 34.36364 | 139.76133 | 36268 ft | 585 kts | 54° |
| 2026-04-29 11:29 | 34.40517 | 139.84613 | 36451 ft | 585 kts | 54° |
| 2026-04-29 11:30 | 34.44668 | 139.93111 | 36609 ft | 585 kts | 54° |
| 2026-04-29 11:30 | 34.48806 | 140.01601 | 36772 ft | 585 kts | 54° |
| 2026-04-29 11:31 | 34.52936 | 140.10098 | 36928 ft | 585 kts | 54° |
| 2026-04-29 11:31 | 34.57035 | 140.18549 | 37097 ft | 584 kts | 54° |
| 2026-04-29 11:32 | 34.61149 | 140.27054 | 37254 ft | 584 kts | 54° |
| 2026-04-29 11:32 | 34.65250 | 140.35551 | 37390 ft | 583 kts | 54° |
| 2026-04-29 11:33 | 34.69350 | 140.44067 | 37511 ft | 583 kts | 54° |
| 2026-04-29 11:33 | 34.73379 | 140.52630 | 37603 ft | 584 kts | 55° |
| 2026-04-29 11:34 | 34.77329 | 140.61277 | 37710 ft | 585 kts | 56° |
| 2026-04-29 11:34 | 34.81276 | 140.69939 | 37782 ft | 585 kts | 56° |
| 2026-04-29 11:35 | 34.85236 | 140.78606 | 37886 ft | 586 kts | 55° |
| 2026-04-29 11:35 | 34.89172 | 140.87217 | 37949 ft | 586 kts | 55° |
| 2026-04-29 11:36 | 34.93130 | 140.95896 | 38021 ft | 586 kts | 55° |
| 2026-04-29 11:36 | 34.95777 | 141.01716 | 38068 ft | 586 kts | 55° |
| 2026-04-29 11:37 | 34.98299 | 141.07274 | 38119 ft | 587 kts | 55° |
| 2026-04-29 11:37 | 35.02249 | 141.15995 | 38195 ft | 587 kts | 55° |
| 2026-04-29 11:38 | 35.06184 | 141.24705 | 38266 ft | 587 kts | 55° |
| 2026-04-29 11:38 | 35.10122 | 141.33444 | 38347 ft | 587 kts | 55° |
| 2026-04-29 11:39 | 35.14052 | 141.42186 | 38406 ft | 587 kts | 55° |
| 2026-04-29 11:39 | 35.17974 | 141.50933 | 38459 ft | 587 kts | 55° |
| 2026-04-29 11:40 | 35.21871 | 141.59647 | 38502 ft | 587 kts | 55° |
| 2026-04-29 11:40 | 35.25785 | 141.68420 | 38565 ft | 587 kts | 55° |
| 2026-04-29 11:41 | 35.29697 | 141.77213 | 38600 ft | 588 kts | 55° |
| 2026-04-29 11:41 | 35.33598 | 141.86004 | 38670 ft | 587 kts | 55° |
| 2026-04-29 11:42 | 35.37495 | 141.94811 | 38721 ft | 588 kts | 55° |
| 2026-04-29 11:42 | 35.41361 | 142.03567 | 38744 ft | 588 kts | 55° |
| 2026-04-29 11:43 | 35.45244 | 142.12388 | 38784 ft | 588 kts | 55° |
| 2026-04-29 11:43 | 35.49125 | 142.21225 | 38808 ft | 588 kts | 55° |
| 2026-04-29 11:44 | 35.53011 | 142.30097 | 38824 ft | 589 kts | 55° |
| 2026-04-29 11:44 | 35.56888 | 142.38970 | 38836 ft | 590 kts | 55° |
| 2026-04-29 11:45 | 35.60765 | 142.47869 | 38846 ft | 590 kts | 55° |
| 2026-04-29 11:45 | 35.64614 | 142.56728 | 38863 ft | 591 kts | 55° |
| 2026-04-29 11:46 | 35.68480 | 142.65651 | 38886 ft | 591 kts | 55° |
| 2026-04-29 11:46 | 35.72341 | 142.74585 | 38959 ft | 590 kts | 55° |
| 2026-04-29 11:47 | 35.76182 | 142.83499 | 39074 ft | 588 kts | 55° |
| 2026-04-29 11:47 | 35.80007 | 142.92396 | 39098 ft | 586 kts | 55° |
| 2026-04-29 11:48 | 35.83816 | 143.01278 | 39099 ft | 585 kts | 55° |
| 2026-04-29 11:48 | 35.87587 | 143.10097 | 39101 ft | 585 kts | 55° |
| 2026-04-29 11:49 | 35.91605 | 143.18749 | 39096 ft | 573 kts | 45° |
| 2026-04-29 11:49 | 35.96733 | 143.26042 | 39117 ft | 554 kts | 33° |
| 2026-04-29 11:50 | 35.99612 | 143.29119 | 39101 ft | 541 kts | 25° |
| 2026-04-29 11:50 | 36.02635 | 143.31881 | 39118 ft | 538 kts | 24° |
| 2026-04-29 11:50 | 36.08691 | 143.37301 | 39111 ft | 538 kts | 24° |
| 2026-04-29 11:51 | 36.14739 | 143.42777 | 39112 ft | 539 kts | 25° |
| 2026-04-29 11:51 | 36.20758 | 143.48315 | 39110 ft | 540 kts | 25° |
| 2026-04-29 11:52 | 36.26774 | 143.53887 | 39110 ft | 540 kts | 25° |
| 2026-04-29 11:52 | 36.32791 | 143.59466 | 39113 ft | 541 kts | 25° |
| 2026-04-29 11:53 | 36.38829 | 143.65067 | 39105 ft | 543 kts | 25° |
| 2026-04-29 11:53 | 36.44846 | 143.70662 | 39110 ft | 545 kts | 25° |
| 2026-04-29 11:54 | 36.50923 | 143.76323 | 39116 ft | 546 kts | 25° |
| 2026-04-29 11:54 | 36.57010 | 143.82006 | 39118 ft | 548 kts | 25° |
| 2026-04-29 11:55 | 36.62090 | 143.86758 | 39120 ft | 549 kts | 25° |
| 2026-04-29 11:55 | 36.68205 | 143.92488 | 39119 ft | 551 kts | 25° |
| 2026-04-29 11:56 | 36.74341 | 143.98250 | 39119 ft | 552 kts | 25° |
| 2026-04-29 11:56 | 36.80484 | 144.04031 | 39124 ft | 553 kts | 25° |
| 2026-04-29 11:57 | 36.86637 | 144.09832 | 39117 ft | 555 kts | 25° |
| 2026-04-29 11:57 | 36.92805 | 144.15661 | 39114 ft | 556 kts | 25° |
| 2026-04-29 11:58 | 36.98936 | 144.21468 | 39117 ft | 557 kts | 25° |
| 2026-04-29 11:58 | 37.05126 | 144.27340 | 39122 ft | 558 kts | 25° |
| 2026-04-29 11:59 | 37.11323 | 144.33236 | 39129 ft | 559 kts | 25° |
| 2026-04-29 11:59 | 37.17516 | 144.39145 | 39130 ft | 560 kts | 25° |
| 2026-04-29 12:00 | 37.23671 | 144.45031 | 39132 ft | 560 kts | 25° |
| 2026-04-29 12:00 | 37.29884 | 144.50985 | 39131 ft | 561 kts | 25° |
| 2026-04-29 12:01 | 37.36090 | 144.56944 | 39132 ft | 562 kts | 25° |
| 2026-04-29 12:01 | 37.42299 | 144.62919 | 39129 ft | 562 kts | 25° |
| 2026-04-29 12:02 | 37.48507 | 144.68906 | 39127 ft | 562 kts | 25° |
| 2026-04-29 12:02 | 37.54680 | 144.74871 | 39144 ft | 563 kts | 25° |
| 2026-04-29 12:03 | 37.60894 | 144.80889 | 39130 ft | 564 kts | 25° |
| 2026-04-29 12:03 | 37.67116 | 144.86929 | 39135 ft | 564 kts | 25° |
| 2026-04-29 12:04 | 37.73338 | 144.92981 | 39135 ft | 564 kts | 25° |
| 2026-04-29 12:04 | 37.79561 | 144.99048 | 39131 ft | 565 kts | 25° |
| 2026-04-29 12:05 | 37.85789 | 145.05132 | 39137 ft | 565 kts | 25° |
| 2026-04-29 12:05 | 37.92018 | 145.11231 | 39130 ft | 566 kts | 25° |
| 2026-04-29 12:06 | 37.98202 | 145.17299 | 39125 ft | 566 kts | 25° |
| 2026-04-29 12:06 | 38.03422 | 145.22432 | 39121 ft | 567 kts | 25° |
| 2026-04-29 12:07 | 38.06194 | 145.25162 | 39122 ft | 567 kts | 25° |
| 2026-04-29 12:07 | 38.12432 | 145.31314 | 39123 ft | 567 kts | 25° |
| 2026-04-29 12:08 | 38.18671 | 145.37481 | 39124 ft | 568 kts | 25° |
| 2026-04-29 12:08 | 38.24912 | 145.43664 | 39124 ft | 569 kts | 25° |
| 2026-04-29 12:09 | 38.31129 | 145.49837 | 39120 ft | 570 kts | 25° |
| 2026-04-29 12:09 | 38.37274 | 145.56484 | 39123 ft | 580 kts | 30° |
| 2026-04-29 12:10 | 38.43161 | 145.63468 | 39120 ft | 583 kts | 31° |
| 2026-04-29 12:10 | 38.49083 | 145.70573 | 39123 ft | 584 kts | 31° |
| 2026-04-29 12:11 | 38.55024 | 145.77645 | 39128 ft | 584 kts | 31° |
| 2026-04-29 12:11 | 38.60985 | 145.84709 | 39128 ft | 585 kts | 31° |
| 2026-04-29 12:12 | 38.66959 | 145.91795 | 39135 ft | 586 kts | 31° |
| 2026-04-29 12:12 | 38.72947 | 145.98923 | 39123 ft | 587 kts | 31° |
| 2026-04-29 12:13 | 38.78889 | 146.06019 | 39131 ft | 588 kts | 31° |
| 2026-04-29 12:13 | 38.84875 | 146.13185 | 39128 ft | 589 kts | 31° |
| 2026-04-29 12:14 | 38.90874 | 146.20384 | 39127 ft | 591 kts | 31° |
| 2026-04-29 12:14 | 38.96879 | 146.27608 | 39125 ft | 592 kts | 31° |
| 2026-04-29 12:15 | 39.02893 | 146.34860 | 39123 ft | 593 kts | 31° |
| 2026-04-29 12:15 | 39.08908 | 146.42130 | 39120 ft | 594 kts | 31° |
| 2026-04-29 12:16 | 39.14940 | 146.49440 | 39121 ft | 595 kts | 31° |
| 2026-04-29 12:16 | 39.20934 | 146.56722 | 39121 ft | 596 kts | 31° |
| 2026-04-29 12:17 | 39.26970 | 146.64071 | 39128 ft | 597 kts | 31° |
| 2026-04-29 12:17 | 39.33011 | 146.71447 | 39128 ft | 598 kts | 31° |
| 2026-04-29 12:18 | 39.39060 | 146.78849 | 39131 ft | 599 kts | 31° |
| 2026-04-29 12:18 | 39.45125 | 146.86290 | 39131 ft | 600 kts | 31° |
| 2026-04-29 12:19 | 39.51186 | 146.93746 | 39130 ft | 601 kts | 31° |
| 2026-04-29 12:19 | 39.57249 | 147.01223 | 39127 ft | 602 kts | 31° |
| 2026-04-29 12:20 | 39.63272 | 147.08669 | 39128 ft | 603 kts | 31° |
| 2026-04-29 12:20 | 39.69344 | 147.16195 | 39128 ft | 603 kts | 31° |
| 2026-04-29 12:21 | 39.75408 | 147.23731 | 39132 ft | 604 kts | 31° |
| 2026-04-29 12:21 | 39.81479 | 147.31293 | 39129 ft | 604 kts | 31° |
| 2026-04-29 12:22 | 39.87550 | 147.38876 | 39134 ft | 605 kts | 32° |
| 2026-04-29 12:22 | 39.93623 | 147.46480 | 39127 ft | 605 kts | 32° |
| 2026-04-29 12:23 | 39.99694 | 147.54103 | 39126 ft | 606 kts | 32° |
| 2026-04-29 12:23 | 40.05764 | 147.61744 | 39127 ft | 606 kts | 32° |
| 2026-04-29 12:24 | 40.11788 | 147.69346 | 39126 ft | 606 kts | 33° |
| 2026-04-29 12:24 | 40.17846 | 147.77013 | 39123 ft | 606 kts | 33° |
| 2026-04-29 12:25 | 40.23908 | 147.84703 | 39123 ft | 606 kts | 33° |
| 2026-04-29 12:26 | 40.32972 | 147.96241 | 39129 ft | 605 kts | 34° |
| 2026-04-29 12:26 | 40.39009 | 148.03950 | 39128 ft | 605 kts | 34° |
| 2026-04-29 12:27 | 40.45002 | 148.11625 | 39130 ft | 604 kts | 34° |
| 2026-04-29 12:27 | 40.51020 | 148.19350 | 39127 ft | 604 kts | 35° |
| 2026-04-29 12:28 | 40.57021 | 148.27075 | 39120 ft | 603 kts | 35° |
| 2026-04-29 12:28 | 40.62973 | 148.34757 | 39118 ft | 602 kts | 35° |
| 2026-04-29 12:29 | 40.68948 | 148.42488 | 39117 ft | 601 kts | 35° |
| 2026-04-29 12:29 | 40.74909 | 148.50222 | 39111 ft | 601 kts | 36° |
| 2026-04-29 12:30 | 40.80863 | 148.57967 | 39115 ft | 601 kts | 36° |
| 2026-04-29 12:30 | 40.86814 | 148.65729 | 39117 ft | 601 kts | 36° |
| 2026-04-29 12:31 | 40.92760 | 148.73506 | 39117 ft | 602 kts | 36° |
| 2026-04-29 12:31 | 40.98706 | 148.81304 | 39116 ft | 602 kts | 36° |
| 2026-04-29 12:32 | 41.04650 | 148.89123 | 39120 ft | 602 kts | 37° |
| 2026-04-29 12:32 | 41.10595 | 148.96961 | 39118 ft | 602 kts | 37° |
| 2026-04-29 12:33 | 41.16524 | 149.04805 | 39115 ft | 603 kts | 37° |
| 2026-04-29 12:33 | 41.22452 | 149.12677 | 39114 ft | 603 kts | 37° |
| 2026-04-29 12:34 | 41.28374 | 149.20562 | 39113 ft | 603 kts | 37° |
| 2026-04-29 12:34 | 41.34293 | 149.28463 | 39113 ft | 602 kts | 37° |
| 2026-04-29 12:35 | 41.40199 | 149.36369 | 39108 ft | 602 kts | 37° |
| 2026-04-29 12:35 | 41.46063 | 149.44240 | 39102 ft | 601 kts | 37° |
| 2026-04-29 12:36 | 41.51951 | 149.52163 | 39103 ft | 601 kts | 37° |
| 2026-04-29 12:36 | 41.57827 | 149.60094 | 39097 ft | 600 kts | 38° |
| 2026-04-29 12:37 | 41.59654 | 149.62564 | 39100 ft | 600 kts | 38° |
| 2026-04-29 12:37 | 41.65520 | 149.70510 | 39092 ft | 599 kts | 38° |
| 2026-04-29 12:38 | 41.71365 | 149.78447 | 39099 ft | 598 kts | 38° |
| 2026-04-29 12:38 | 41.77171 | 149.86354 | 39103 ft | 598 kts | 38° |
| 2026-04-29 12:39 | 41.82992 | 149.94302 | 39104 ft | 597 kts | 38° |
| 2026-04-29 12:39 | 41.88803 | 150.02260 | 39098 ft | 596 kts | 38° |
| 2026-04-29 12:40 | 41.94603 | 150.10225 | 39094 ft | 596 kts | 38° |
| 2026-04-29 12:40 | 42.00393 | 150.18198 | 39092 ft | 595 kts | 38° |
| 2026-04-29 12:41 | 42.06176 | 150.26181 | 39100 ft | 595 kts | 38° |
| 2026-04-29 12:41 | 42.11898 | 150.34105 | 39089 ft | 594 kts | 39° |
| 2026-04-29 12:42 | 42.17655 | 150.42098 | 39086 ft | 593 kts | 39° |
| 2026-04-29 12:42 | 42.23394 | 150.50089 | 39090 ft | 593 kts | 39° |
| 2026-04-29 12:43 | 42.29123 | 150.58089 | 39089 ft | 592 kts | 39° |
| 2026-04-29 12:43 | 42.34841 | 150.66094 | 39088 ft | 591 kts | 39° |
| 2026-04-29 12:44 | 42.39581 | 150.72747 | 39085 ft | 590 kts | 39° |
| 2026-04-29 12:44 | 42.45267 | 150.80745 | 37777 ft | 587 kts | 47° |
| 2026-04-29 12:44 | 42.48044 | 150.84644 | 36893 ft | 566 kts | 46° |
| 2026-04-29 12:45 | 42.50713 | 150.88415 | 37595 ft | 542 kts | 46° |
| 2026-04-29 12:45 | 42.53272 | 150.92041 | 38566 ft | 521 kts | 46° |
| 2026-04-29 12:45 | 42.55759 | 150.95568 | 38948 ft | 516 kts | 46° |
| 2026-04-29 12:46 | 42.60717 | 151.02606 | 38989 ft | 515 kts | 46° |
| 2026-04-29 12:46 | 42.65674 | 151.09654 | 38997 ft | 515 kts | 46° |
| 2026-04-29 12:47 | 42.70621 | 151.16703 | 39001 ft | 516 kts | 46° |
| 2026-04-29 12:47 | 42.75571 | 151.23777 | 39003 ft | 516 kts | 46° |
| 2026-04-29 12:48 | 42.80521 | 151.30867 | 39006 ft | 517 kts | 46° |
| 2026-04-29 12:48 | 42.85441 | 151.37932 | 39005 ft | 517 kts | 46° |
| 2026-04-29 12:49 | 42.90392 | 151.45058 | 38999 ft | 517 kts | 46° |
| 2026-04-29 12:49 | 42.95342 | 151.52202 | 39008 ft | 517 kts | 46° |
| 2026-04-29 12:50 | 43.00278 | 151.59344 | 39000 ft | 517 kts | 46° |
| 2026-04-29 12:50 | 43.05213 | 151.66500 | 39000 ft | 517 kts | 47° |
| 2026-04-29 12:51 | 43.10137 | 151.73661 | 39005 ft | 516 kts | 47° |
| 2026-04-29 12:51 | 43.15052 | 151.80825 | 39008 ft | 516 kts | 47° |
| 2026-04-29 12:52 | 43.19963 | 151.88001 | 39005 ft | 515 kts | 47° |
| 2026-04-29 12:52 | 43.24863 | 151.95181 | 39007 ft | 515 kts | 47° |
| 2026-04-29 12:53 | 43.29751 | 152.02359 | 38999 ft | 515 kts | 47° |
| 2026-04-29 12:53 | 43.34595 | 152.09493 | 39004 ft | 514 kts | 47° |
| 2026-04-29 12:54 | 43.39474 | 152.16695 | 39004 ft | 514 kts | 47° |
| 2026-04-29 12:54 | 43.44342 | 152.23900 | 39001 ft | 514 kts | 47° |
| 2026-04-29 12:55 | 43.49217 | 152.31133 | 39007 ft | 514 kts | 47° |
| 2026-04-29 12:55 | 43.54077 | 152.38362 | 39002 ft | 514 kts | 47° |
| 2026-04-29 12:56 | 43.58934 | 152.45605 | 38994 ft | 514 kts | 47° |
| 2026-04-29 12:56 | 43.63787 | 152.52860 | 39007 ft | 514 kts | 47° |
| 2026-04-29 12:57 | 43.68634 | 152.60126 | 39000 ft | 514 kts | 47° |
| 2026-04-29 12:57 | 43.73471 | 152.67395 | 39000 ft | 514 kts | 47° |
| 2026-04-29 12:58 | 43.78275 | 152.74632 | 39002 ft | 514 kts | 47° |
| 2026-04-29 12:58 | 43.83113 | 152.81940 | 39007 ft | 514 kts | 47° |
| 2026-04-29 12:59 | 43.87937 | 152.89246 | 39004 ft | 514 kts | 47° |
| 2026-04-29 12:59 | 43.92764 | 152.96576 | 38999 ft | 514 kts | 47° |
| 2026-04-29 13:00 | 43.97580 | 153.03907 | 38995 ft | 514 kts | 47° |
| 2026-04-29 13:00 | 44.02392 | 153.11251 | 39003 ft | 514 kts | 47° |
| 2026-04-29 13:01 | 44.07199 | 153.18607 | 39005 ft | 514 kts | 48° |
| 2026-04-29 13:01 | 44.11970 | 153.25926 | 39000 ft | 514 kts | 48° |
| 2026-04-29 13:02 | 44.16767 | 153.33305 | 39000 ft | 514 kts | 48° |
| 2026-04-29 13:02 | 44.21561 | 153.40699 | 38998 ft | 514 kts | 48° |
| 2026-04-29 13:02 | 44.23955 | 153.44399 | 40231 ft | 517 kts | 42° |
| 2026-04-29 13:03 | 44.26405 | 153.48178 | 39725 ft | 532 kts | 43° |
| 2026-04-29 13:03 | 44.28906 | 153.52043 | 39545 ft | 539 kts | 43° |
| 2026-04-29 13:03 | 44.31433 | 153.55959 | 39350 ft | 546 kts | 43° |
| 2026-04-29 13:03 | 44.33990 | 153.59934 | 39206 ft | 552 kts | 43° |
| 2026-04-29 13:04 | 44.36564 | 153.63944 | 39118 ft | 556 kts | 43° |
| 2026-04-29 13:04 | 44.41719 | 153.71991 | 39029 ft | 562 kts | 44° |
| 2026-04-29 13:05 | 44.46956 | 153.80186 | 38975 ft | 566 kts | 44° |
| 2026-04-29 13:05 | 44.52217 | 153.88439 | 38969 ft | 569 kts | 44° |
| 2026-04-29 13:06 | 44.57493 | 153.96738 | 38959 ft | 571 kts | 44° |
| 2026-04-29 13:06 | 44.62779 | 154.05079 | 38953 ft | 573 kts | 44° |
| 2026-04-29 13:07 | 44.64455 | 154.07728 | 38949 ft | 573 kts | 44° |
| 2026-04-29 13:07 | 44.69450 | 154.15641 | 38942 ft | 574 kts | 44° |
| 2026-04-29 13:08 | 44.74739 | 154.24044 | 38935 ft | 574 kts | 44° |
| 2026-04-29 13:08 | 44.80020 | 154.32459 | 38925 ft | 573 kts | 44° |
| 2026-04-29 13:09 | 44.85286 | 154.40872 | 38920 ft | 572 kts | 44° |
| 2026-04-29 13:09 | 44.90502 | 154.49333 | 38917 ft | 572 kts | 45° |
| 2026-04-29 13:10 | 44.95674 | 154.57882 | 38913 ft | 572 kts | 45° |
| 2026-04-29 13:10 | 45.00806 | 154.66397 | 38909 ft | 572 kts | 45° |
| 2026-04-29 13:11 | 45.05969 | 154.74963 | 38896 ft | 571 kts | 45° |
| 2026-04-29 13:11 | 45.11125 | 154.83528 | 38884 ft | 571 kts | 45° |
| 2026-04-29 13:12 | 45.16269 | 154.92098 | 38877 ft | 571 kts | 45° |
| 2026-04-29 13:12 | 45.21405 | 155.00683 | 38871 ft | 571 kts | 45° |
| 2026-04-29 13:13 | 45.26535 | 155.09285 | 38865 ft | 570 kts | 45° |
| 2026-04-29 13:13 | 45.31651 | 155.17892 | 38851 ft | 570 kts | 46° |
| 2026-04-29 13:14 | 45.36759 | 155.26510 | 38848 ft | 570 kts | 46° |
| 2026-04-29 13:14 | 45.41855 | 155.35136 | 38840 ft | 569 kts | 46° |
| 2026-04-29 13:15 | 45.46914 | 155.43724 | 38831 ft | 569 kts | 46° |
| 2026-04-29 13:15 | 45.52002 | 155.52388 | 38825 ft | 569 kts | 46° |
| 2026-04-29 13:16 | 45.57081 | 155.61064 | 38812 ft | 569 kts | 46° |
| 2026-04-29 13:16 | 45.62144 | 155.69740 | 38802 ft | 568 kts | 46° |
| 2026-04-29 13:17 | 45.67199 | 155.78429 | 38794 ft | 568 kts | 46° |
| 2026-04-29 13:17 | 45.72207 | 155.87065 | 38785 ft | 567 kts | 46° |
| 2026-04-29 13:18 | 45.77238 | 155.95765 | 38774 ft | 567 kts | 46° |
| 2026-04-29 13:18 | 45.82266 | 156.04488 | 38767 ft | 566 kts | 46° |
| 2026-04-29 13:19 | 45.87279 | 156.13213 | 38758 ft | 566 kts | 47° |
| 2026-04-29 13:19 | 45.92283 | 156.21949 | 38747 ft | 566 kts | 47° |
| 2026-04-29 13:20 | 45.97276 | 156.30693 | 38738 ft | 565 kts | 47° |
| 2026-04-29 13:20 | 46.02222 | 156.39382 | 38729 ft | 565 kts | 47° |
| 2026-04-29 13:21 | 46.07196 | 156.48148 | 38722 ft | 565 kts | 47° |
| 2026-04-29 13:21 | 46.12157 | 156.56919 | 38711 ft | 564 kts | 47° |
| 2026-04-29 13:22 | 46.17111 | 156.65704 | 38700 ft | 564 kts | 47° |
| 2026-04-29 13:22 | 46.22051 | 156.74494 | 38689 ft | 563 kts | 47° |
| 2026-04-29 13:23 | 46.26976 | 156.83283 | 38680 ft | 563 kts | 47° |
| 2026-04-29 13:23 | 46.31895 | 156.92089 | 38667 ft | 563 kts | 47° |
| 2026-04-29 13:24 | 46.36777 | 157.00858 | 38662 ft | 562 kts | 48° |
| 2026-04-29 13:24 | 46.41682 | 157.09696 | 38656 ft | 562 kts | 48° |
| 2026-04-29 13:25 | 46.46578 | 157.18544 | 38644 ft | 562 kts | 48° |
| 2026-04-29 13:25 | 46.53903 | 157.31837 | 38631 ft | 562 kts | 48° |
| 2026-04-29 13:26 | 46.58775 | 157.40714 | 38622 ft | 562 kts | 48° |
| 2026-04-29 13:26 | 46.63618 | 157.49566 | 38617 ft | 562 kts | 48° |
| 2026-04-29 13:27 | 46.68476 | 157.58476 | 38612 ft | 562 kts | 48° |
| 2026-04-29 13:27 | 46.73328 | 157.67400 | 38598 ft | 561 kts | 49° |
| 2026-04-29 13:28 | 46.78169 | 157.76335 | 38592 ft | 561 kts | 49° |
| 2026-04-29 13:28 | 46.82191 | 157.83780 | 38587 ft | 561 kts | 49° |
| 2026-04-29 13:29 | 46.87020 | 157.92746 | 38579 ft | 561 kts | 49° |
| 2026-04-29 13:29 | 46.92620 | 158.03179 | 38569 ft | 561 kts | 49° |
| 2026-04-29 13:30 | 46.96650 | 158.10713 | 38564 ft | 561 kts | 49° |
| 2026-04-29 13:30 | 47.01432 | 158.19678 | 38561 ft | 561 kts | 49° |
| 2026-04-29 13:31 | 47.06229 | 158.28701 | 38557 ft | 561 kts | 49° |
| 2026-04-29 13:31 | 47.11021 | 158.37743 | 38548 ft | 560 kts | 49° |
| 2026-04-29 13:32 | 47.15801 | 158.46793 | 38542 ft | 560 kts | 49° |
| 2026-04-29 13:32 | 47.20539 | 158.55793 | 38537 ft | 560 kts | 49° |
| 2026-04-29 13:33 | 47.25302 | 158.64871 | 38533 ft | 560 kts | 50° |
| 2026-04-29 13:33 | 47.30059 | 158.73967 | 38528 ft | 560 kts | 50° |
| 2026-04-29 13:34 | 47.34808 | 158.83078 | 38523 ft | 560 kts | 50° |
| 2026-04-29 13:34 | 47.39541 | 158.92188 | 38518 ft | 559 kts | 50° |
| 2026-04-29 13:35 | 47.44272 | 159.01325 | 38517 ft | 559 kts | 50° |
| 2026-04-29 13:35 | 47.48962 | 159.10413 | 38514 ft | 559 kts | 50° |
| 2026-04-29 13:36 | 47.53676 | 159.19578 | 38516 ft | 559 kts | 50° |
| 2026-04-29 13:36 | 47.57585 | 159.27202 | 38516 ft | 559 kts | 50° |
| 2026-04-29 13:37 | 47.59582 | 159.31103 | 38516 ft | 559 kts | 50° |
| 2026-04-29 13:37 | 47.64271 | 159.40289 | 38512 ft | 559 kts | 50° |
| 2026-04-29 13:38 | 47.68957 | 159.49500 | 38513 ft | 559 kts | 51° |
| 2026-04-29 13:38 | 47.73603 | 159.58663 | 38523 ft | 559 kts | 51° |
| 2026-04-29 13:39 | 47.78275 | 159.67907 | 38524 ft | 559 kts | 51° |
| 2026-04-29 13:39 | 47.82935 | 159.77159 | 38535 ft | 558 kts | 51° |
| 2026-04-29 13:40 | 47.87585 | 159.86423 | 38528 ft | 558 kts | 51° |
| 2026-04-29 13:40 | 47.92229 | 159.95707 | 38536 ft | 558 kts | 51° |
| 2026-04-29 13:41 | 47.96860 | 160.04997 | 38543 ft | 558 kts | 51° |
| 2026-04-29 13:41 | 48.01490 | 160.14315 | 38549 ft | 558 kts | 51° |
| 2026-04-29 13:42 | 48.06112 | 160.23651 | 38556 ft | 558 kts | 51° |
| 2026-04-29 13:42 | 48.10694 | 160.32938 | 38557 ft | 558 kts | 52° |
| 2026-04-29 13:43 | 48.15297 | 160.42298 | 38559 ft | 558 kts | 52° |
| 2026-04-29 13:43 | 48.19896 | 160.51684 | 38567 ft | 558 kts | 52° |
| 2026-04-29 13:44 | 48.24484 | 160.61079 | 38570 ft | 558 kts | 52° |
| 2026-04-29 13:44 | 48.29051 | 160.70484 | 38570 ft | 558 kts | 53° |
| 2026-04-29 13:45 | 48.33479 | 160.79999 | 38579 ft | 558 kts | 54° |
| 2026-04-29 13:45 | 48.37894 | 160.89693 | 38578 ft | 558 kts | 54° |
| 2026-04-29 13:46 | 48.42258 | 160.99271 | 38580 ft | 558 kts | 54° |
| 2026-04-29 13:46 | 48.46658 | 161.08909 | 38579 ft | 558 kts | 54° |
| 2026-04-29 13:47 | 48.51057 | 161.18559 | 38585 ft | 558 kts | 54° |
| 2026-04-29 13:47 | 48.55445 | 161.28223 | 38589 ft | 558 kts | 54° |
| 2026-04-29 13:48 | 48.59805 | 161.37863 | 38593 ft | 558 kts | 54° |
| 2026-04-29 13:48 | 48.64180 | 161.47573 | 38592 ft | 558 kts | 54° |
| 2026-04-29 13:49 | 48.68551 | 161.57311 | 38594 ft | 558 kts | 54° |
| 2026-04-29 13:49 | 48.72908 | 161.67050 | 38599 ft | 559 kts | 54° |
| 2026-04-29 13:50 | 48.77258 | 161.76810 | 38602 ft | 559 kts | 54° |
| 2026-04-29 13:50 | 48.81603 | 161.86594 | 38599 ft | 559 kts | 54° |
| 2026-04-29 13:51 | 48.85937 | 161.96389 | 38598 ft | 559 kts | 55° |
| 2026-04-29 13:51 | 48.90267 | 162.06211 | 38603 ft | 559 kts | 55° |
| 2026-04-29 13:52 | 48.94587 | 162.16045 | 38605 ft | 559 kts | 55° |
| 2026-04-29 13:52 | 48.98868 | 162.25828 | 38605 ft | 559 kts | 55° |
| 2026-04-29 13:53 | 49.03193 | 162.35747 | 38608 ft | 559 kts | 55° |
| 2026-04-29 13:53 | 49.07460 | 162.45569 | 38609 ft | 558 kts | 55° |
| 2026-04-29 13:54 | 49.11743 | 162.55464 | 38612 ft | 558 kts | 55° |
| 2026-04-29 13:54 | 49.16016 | 162.65372 | 38617 ft | 558 kts | 56° |
| 2026-04-29 13:55 | 49.20276 | 162.75287 | 38620 ft | 557 kts | 56° |
| 2026-04-29 13:55 | 49.24522 | 162.85206 | 38626 ft | 557 kts | 56° |
| 2026-04-29 13:56 | 49.28756 | 162.95134 | 38627 ft | 556 kts | 56° |
| 2026-04-29 13:56 | 49.32953 | 163.05012 | 38626 ft | 556 kts | 56° |
| 2026-04-29 13:57 | 49.37161 | 163.14956 | 38628 ft | 555 kts | 56° |
| 2026-04-29 13:57 | 49.41358 | 163.24906 | 38630 ft | 555 kts | 56° |
| 2026-04-29 13:58 | 49.45539 | 163.34857 | 38638 ft | 554 kts | 56° |
| 2026-04-29 13:58 | 49.49710 | 163.44823 | 38636 ft | 554 kts | 56° |
| 2026-04-29 13:59 | 49.53878 | 163.54818 | 38643 ft | 554 kts | 57° |
| 2026-04-29 13:59 | 49.58032 | 163.64817 | 38647 ft | 554 kts | 57° |
| 2026-04-29 14:00 | 49.62180 | 163.74842 | 38651 ft | 554 kts | 57° |
| 2026-04-29 14:00 | 49.66325 | 163.84894 | 38649 ft | 555 kts | 57° |
| 2026-04-29 14:01 | 49.70437 | 163.94905 | 38651 ft | 555 kts | 57° |
| 2026-04-29 14:01 | 49.74569 | 164.05006 | 38654 ft | 556 kts | 57° |
| 2026-04-29 14:02 | 49.78698 | 164.15135 | 38656 ft | 556 kts | 57° |
| 2026-04-29 14:02 | 49.82818 | 164.25283 | 38668 ft | 557 kts | 57° |
| 2026-04-29 14:03 | 49.86931 | 164.35451 | 38674 ft | 557 kts | 57° |
| 2026-04-29 14:03 | 49.91042 | 164.45655 | 38668 ft | 557 kts | 57° |
| 2026-04-29 14:04 | 49.95144 | 164.55877 | 38668 ft | 557 kts | 58° |
| 2026-04-29 14:04 | 49.99207 | 164.66040 | 38671 ft | 557 kts | 58° |
| 2026-04-29 14:05 | 50.03285 | 164.76280 | 38674 ft | 556 kts | 58° |
| 2026-04-29 14:05 | 50.07349 | 164.86525 | 38672 ft | 556 kts | 58° |
| 2026-04-29 14:06 | 50.11398 | 164.96775 | 38677 ft | 555 kts | 58° |
| 2026-04-29 14:06 | 50.14076 | 165.03576 | 38677 ft | 555 kts | 58° |
| 2026-04-29 14:07 | 50.16721 | 165.10307 | 38678 ft | 554 kts | 58° |
| 2026-04-29 14:07 | 50.20697 | 165.20528 | 38680 ft | 554 kts | 58° |
| 2026-04-29 14:08 | 50.24652 | 165.30850 | 38682 ft | 553 kts | 59° |
| 2026-04-29 14:08 | 50.28594 | 165.41193 | 38681 ft | 553 kts | 59° |
| 2026-04-29 14:09 | 50.32527 | 165.51529 | 38686 ft | 552 kts | 59° |
| 2026-04-29 14:09 | 50.36425 | 165.61804 | 38685 ft | 552 kts | 59° |
| 2026-04-29 14:10 | 50.40339 | 165.72160 | 38684 ft | 552 kts | 59° |
| 2026-04-29 14:10 | 50.44239 | 165.82522 | 38685 ft | 551 kts | 59° |
| 2026-04-29 14:11 | 50.48130 | 165.92903 | 38683 ft | 551 kts | 59° |
| 2026-04-29 14:11 | 50.52015 | 166.03312 | 38687 ft | 551 kts | 59° |
| 2026-04-29 14:12 | 50.55856 | 166.13642 | 38685 ft | 551 kts | 59° |
| 2026-04-29 14:12 | 50.59713 | 166.24057 | 38687 ft | 550 kts | 59° |
| 2026-04-29 14:13 | 50.63556 | 166.34476 | 38687 ft | 550 kts | 59° |
| 2026-04-29 14:13 | 50.67387 | 166.44906 | 38688 ft | 550 kts | 60° |
| 2026-04-29 14:14 | 50.71210 | 166.55356 | 38688 ft | 550 kts | 60° |
| 2026-04-29 14:14 | 50.75027 | 166.65831 | 38689 ft | 549 kts | 60° |
| 2026-04-29 14:15 | 50.78184 | 166.74529 | 38694 ft | 549 kts | 60° |
| 2026-04-29 14:15 | 50.81972 | 166.85004 | 38693 ft | 549 kts | 60° |
| 2026-04-29 14:16 | 50.85751 | 166.95497 | 38695 ft | 548 kts | 60° |
| 2026-04-29 14:16 | 50.89523 | 167.06013 | 38691 ft | 548 kts | 60° |
| 2026-04-29 14:17 | 50.93278 | 167.16525 | 38692 ft | 547 kts | 60° |
| 2026-04-29 14:17 | 50.97020 | 167.27045 | 38693 ft | 547 kts | 60° |
| 2026-04-29 14:18 | 51.00746 | 167.37563 | 38691 ft | 547 kts | 60° |
| 2026-04-29 14:18 | 51.04440 | 167.48033 | 38687 ft | 546 kts | 61° |
| 2026-04-29 14:19 | 51.08140 | 167.58565 | 38685 ft | 546 kts | 61° |
| 2026-04-29 14:19 | 51.11837 | 167.69132 | 38685 ft | 545 kts | 61° |
| 2026-04-29 14:20 | 51.15515 | 167.79690 | 38687 ft | 545 kts | 61° |
| 2026-04-29 14:20 | 51.19185 | 167.90268 | 38688 ft | 544 kts | 61° |
| 2026-04-29 14:21 | 51.22840 | 168.00845 | 38683 ft | 544 kts | 61° |
| 2026-04-29 14:21 | 51.26456 | 168.11354 | 38684 ft | 544 kts | 62° |
| 2026-04-29 14:22 | 51.30087 | 168.21953 | 38682 ft | 543 kts | 62° |
| 2026-04-29 14:22 | 51.33707 | 168.32563 | 38678 ft | 543 kts | 62° |
| 2026-04-29 14:23 | 51.37313 | 168.43177 | 38678 ft | 543 kts | 62° |
| 2026-04-29 14:23 | 51.40910 | 168.53809 | 38675 ft | 542 kts | 62° |
| 2026-04-29 14:24 | 51.44476 | 168.64397 | 38672 ft | 542 kts | 62° |
| 2026-04-29 14:24 | 51.48048 | 168.75043 | 38672 ft | 542 kts | 62° |
| 2026-04-29 14:25 | 51.51608 | 168.85702 | 38671 ft | 542 kts | 62° |
| 2026-04-29 14:25 | 51.55157 | 168.96372 | 38667 ft | 541 kts | 62° |
| 2026-04-29 14:26 | 51.58694 | 169.07053 | 38663 ft | 541 kts | 62° |
| 2026-04-29 14:26 | 51.62221 | 169.17750 | 38661 ft | 541 kts | 63° |
| 2026-04-29 14:27 | 51.65735 | 169.28454 | 38661 ft | 540 kts | 63° |
| 2026-04-29 14:28 | 51.70990 | 169.44546 | 38656 ft | 540 kts | 63° |
| 2026-04-29 14:28 | 51.74476 | 169.55280 | 38654 ft | 540 kts | 63° |
| 2026-04-29 14:29 | 51.77954 | 169.66037 | 38650 ft | 540 kts | 63° |
| 2026-04-29 14:29 | 51.81418 | 169.76796 | 38651 ft | 540 kts | 63° |
| 2026-04-29 14:30 | 51.84871 | 169.87568 | 38648 ft | 540 kts | 63° |
| 2026-04-29 14:30 | 51.88295 | 169.98294 | 38647 ft | 539 kts | 63° |
| 2026-04-29 14:31 | 51.91729 | 170.09103 | 38645 ft | 539 kts | 63° |
| 2026-04-29 14:31 | 51.95151 | 170.19921 | 38646 ft | 539 kts | 63° |
| 2026-04-29 14:32 | 51.98564 | 170.30758 | 38642 ft | 539 kts | 63° |
| 2026-04-29 14:32 | 52.01963 | 170.41598 | 38645 ft | 539 kts | 64° |
| 2026-04-29 14:33 | 52.05357 | 170.52474 | 38635 ft | 539 kts | 64° |
| 2026-04-29 14:33 | 52.08736 | 170.63344 | 38640 ft | 539 kts | 64° |
| 2026-04-29 14:34 | 52.12383 | 170.73997 | 38644 ft | 539 kts | 56° |
| 2026-04-29 14:34 | 52.17006 | 170.83576 | 38643 ft | 538 kts | 48° |
| 2026-04-29 14:35 | 52.21963 | 170.92619 | 38637 ft | 538 kts | 48° |
| 2026-04-29 14:35 | 52.26922 | 171.01793 | 38640 ft | 539 kts | 49° |
| 2026-04-29 14:36 | 52.31836 | 171.11059 | 38637 ft | 539 kts | 49° |
| 2026-04-29 14:36 | 52.36734 | 171.20328 | 38639 ft | 539 kts | 49° |
| 2026-04-29 14:37 | 52.38396 | 171.23534 | 38636 ft | 539 kts | 51° |
| 2026-04-29 14:37 | 52.42666 | 171.32963 | 38642 ft | 538 kts | 54° |
| 2026-04-29 14:38 | 52.46976 | 171.43012 | 38629 ft | 539 kts | 55° |
| 2026-04-29 14:38 | 52.51284 | 171.53081 | 38635 ft | 539 kts | 55° |
| 2026-04-29 14:39 | 52.55612 | 171.63136 | 38629 ft | 539 kts | 54° |
| 2026-04-29 14:39 | 52.59949 | 171.73201 | 38631 ft | 539 kts | 54° |
| 2026-04-29 14:40 | 52.64286 | 171.83303 | 38625 ft | 539 kts | 55° |
| 2026-04-29 14:40 | 52.68605 | 171.93410 | 38626 ft | 539 kts | 55° |
| 2026-04-29 14:41 | 52.72914 | 172.03538 | 38622 ft | 539 kts | 55° |
| 2026-04-29 14:41 | 52.77220 | 172.13701 | 38625 ft | 539 kts | 55° |
| 2026-04-29 14:42 | 52.81513 | 172.23872 | 38624 ft | 539 kts | 55° |
| 2026-04-29 14:42 | 52.85771 | 172.34000 | 38622 ft | 540 kts | 55° |
| 2026-04-29 14:43 | 52.90044 | 172.44208 | 38620 ft | 540 kts | 55° |
| 2026-04-29 14:43 | 52.94313 | 172.54443 | 38623 ft | 540 kts | 55° |
| 2026-04-29 14:44 | 52.98573 | 172.64701 | 38619 ft | 540 kts | 55° |
| 2026-04-29 14:44 | 53.02827 | 172.74986 | 38616 ft | 540 kts | 55° |
| 2026-04-29 14:45 | 53.07071 | 172.85286 | 38624 ft | 540 kts | 55° |
| 2026-04-29 14:45 | 53.11307 | 172.95611 | 38620 ft | 540 kts | 55° |
| 2026-04-29 14:46 | 53.15532 | 173.05949 | 38617 ft | 540 kts | 55° |
| 2026-04-29 14:46 | 53.19746 | 173.16305 | 38616 ft | 539 kts | 55° |
| 2026-04-29 14:47 | 53.23951 | 173.26680 | 38614 ft | 539 kts | 55° |
| 2026-04-29 14:47 | 53.28123 | 173.37014 | 38616 ft | 539 kts | 56° |
| 2026-04-29 14:48 | 53.32307 | 173.47424 | 38619 ft | 539 kts | 56° |
| 2026-04-29 14:48 | 53.36478 | 173.57842 | 38607 ft | 539 kts | 56° |
| 2026-04-29 14:49 | 53.40643 | 173.68289 | 38611 ft | 539 kts | 56° |
| 2026-04-29 14:49 | 53.44792 | 173.78738 | 38612 ft | 538 kts | 56° |
| 2026-04-29 14:50 | 53.48928 | 173.89201 | 38605 ft | 538 kts | 56° |
| 2026-04-29 14:50 | 53.53057 | 173.99688 | 38609 ft | 538 kts | 56° |
| 2026-04-29 14:51 | 53.57151 | 174.10127 | 38612 ft | 537 kts | 56° |
| 2026-04-29 14:51 | 53.61256 | 174.20642 | 38607 ft | 537 kts | 56° |
| 2026-04-29 14:52 | 53.65349 | 174.31167 | 38608 ft | 537 kts | 56° |
| 2026-04-29 14:52 | 53.69439 | 174.41729 | 38601 ft | 536 kts | 56° |
| 2026-04-29 14:53 | 53.73506 | 174.52277 | 38604 ft | 536 kts | 56° |
| 2026-04-29 14:53 | 53.77565 | 174.62848 | 38605 ft | 536 kts | 56° |
| 2026-04-29 14:54 | 53.81615 | 174.73442 | 38600 ft | 536 kts | 56° |
| 2026-04-29 14:54 | 53.85627 | 174.83980 | 38602 ft | 535 kts | 56° |
| 2026-04-29 14:55 | 53.89652 | 174.94595 | 38598 ft | 535 kts | 57° |
| 2026-04-29 14:55 | 53.93667 | 175.05231 | 38601 ft | 535 kts | 57° |
| 2026-04-29 14:56 | 53.97679 | 175.15904 | 38603 ft | 535 kts | 57° |
| 2026-04-29 14:56 | 54.01674 | 175.26579 | 38600 ft | 535 kts | 57° |
| 2026-04-29 14:57 | 54.05667 | 175.37293 | 38600 ft | 535 kts | 57° |
| 2026-04-29 14:57 | 54.09640 | 175.48001 | 38601 ft | 535 kts | 57° |
| 2026-04-29 14:58 | 54.13611 | 175.58748 | 38597 ft | 535 kts | 57° |
| 2026-04-29 14:58 | 54.17557 | 175.69473 | 38594 ft | 535 kts | 57° |
| 2026-04-29 14:59 | 54.21517 | 175.80285 | 38594 ft | 536 kts | 57° |
| 2026-04-29 14:59 | 54.25462 | 175.91102 | 38593 ft | 536 kts | 57° |
| 2026-04-29 15:00 | 54.29374 | 176.01876 | 38595 ft | 536 kts | 57° |
| 2026-04-29 15:00 | 54.33299 | 176.12733 | 38593 ft | 536 kts | 57° |
| 2026-04-29 15:01 | 54.36584 | 176.21855 | 38592 ft | 536 kts | 57° |
| 2026-04-29 15:01 | 54.40466 | 176.32681 | 38592 ft | 536 kts | 57° |
| 2026-04-29 15:02 | 54.44370 | 176.43614 | 38590 ft | 536 kts | 58° |
| 2026-04-29 15:02 | 54.48260 | 176.54558 | 38591 ft | 537 kts | 58° |
| 2026-04-29 15:03 | 54.52143 | 176.65531 | 38595 ft | 537 kts | 58° |
| 2026-04-29 15:03 | 54.56019 | 176.76532 | 38599 ft | 537 kts | 58° |
| 2026-04-29 15:04 | 54.59893 | 176.87578 | 38593 ft | 538 kts | 58° |
| 2026-04-29 15:04 | 54.63737 | 176.98587 | 38593 ft | 538 kts | 58° |
| 2026-04-29 15:05 | 54.67594 | 177.09683 | 38589 ft | 538 kts | 58° |
| 2026-04-29 15:05 | 54.71435 | 177.20785 | 38589 ft | 538 kts | 58° |
| 2026-04-29 15:06 | 54.75268 | 177.31914 | 38592 ft | 538 kts | 58° |
| 2026-04-29 15:06 | 54.79068 | 177.42995 | 38592 ft | 538 kts | 58° |
| 2026-04-29 15:07 | 54.80360 | 177.46775 | 38588 ft | 538 kts | 58° |
| 2026-04-29 15:07 | 54.83898 | 177.57154 | 38590 ft | 539 kts | 58° |
| 2026-04-29 15:08 | 54.87705 | 177.68375 | 38593 ft | 539 kts | 58° |
| 2026-04-29 15:08 | 54.91478 | 177.79542 | 38592 ft | 539 kts | 58° |
| 2026-04-29 15:09 | 54.95288 | 177.90874 | 38589 ft | 539 kts | 58° |
| 2026-04-29 15:09 | 54.99067 | 178.02168 | 38590 ft | 540 kts | 58° |
| 2026-04-29 15:10 | 55.02814 | 178.13414 | 38593 ft | 540 kts | 59° |
| 2026-04-29 15:10 | 55.06574 | 178.24756 | 38593 ft | 540 kts | 59° |
| 2026-04-29 15:11 | 55.10333 | 178.36145 | 38594 ft | 540 kts | 59° |
| 2026-04-29 15:11 | 55.14054 | 178.47474 | 38589 ft | 541 kts | 59° |
| 2026-04-29 15:12 | 55.17791 | 178.58903 | 38588 ft | 541 kts | 59° |
| 2026-04-29 15:12 | 55.21515 | 178.70350 | 38585 ft | 541 kts | 59° |
| 2026-04-29 15:13 | 55.25229 | 178.81819 | 38588 ft | 541 kts | 59° |
| 2026-04-29 15:13 | 55.28934 | 178.93314 | 38585 ft | 541 kts | 59° |
| 2026-04-29 15:14 | 55.32629 | 179.04835 | 38590 ft | 542 kts | 59° |
| 2026-04-29 15:14 | 55.36317 | 179.16388 | 38585 ft | 542 kts | 59° |
| 2026-04-29 15:15 | 55.39992 | 179.27954 | 38588 ft | 542 kts | 59° |
| 2026-04-29 15:15 | 55.43656 | 179.39543 | 38581 ft | 542 kts | 59° |
| 2026-04-29 15:16 | 55.47307 | 179.51148 | 38586 ft | 541 kts | 59° |
| 2026-04-29 15:16 | 55.50947 | 179.62776 | 38585 ft | 541 kts | 59° |
| 2026-04-29 15:17 | 55.54574 | 179.74415 | 38585 ft | 541 kts | 59° |
| 2026-04-29 15:17 | 55.58189 | 179.86078 | 38587 ft | 541 kts | 59° |
| 2026-04-29 15:18 | 55.61765 | 179.97668 | 38586 ft | 540 kts | 60° |
| 2026-04-29 15:18 | 55.65353 | -179.90645 | 38584 ft | 539 kts | 60° |
| 2026-04-29 15:19 | 55.68926 | -179.78950 | 38585 ft | 539 kts | 60° |
| 2026-04-29 15:19 | 55.72482 | -179.67254 | 38587 ft | 538 kts | 60° |
| 2026-04-29 15:20 | 55.76023 | -179.55549 | 38587 ft | 538 kts | 60° |
| 2026-04-29 15:20 | 55.79531 | -179.43894 | 38587 ft | 537 kts | 60° |
| 2026-04-29 15:21 | 55.83048 | -179.32151 | 38584 ft | 537 kts | 60° |
| 2026-04-29 15:21 | 55.86548 | -179.20408 | 38586 ft | 537 kts | 60° |
| 2026-04-29 15:22 | 55.90034 | -179.08652 | 38581 ft | 536 kts | 60° |
| 2026-04-29 15:22 | 55.93509 | -178.96877 | 38582 ft | 536 kts | 60° |
| 2026-04-29 15:23 | 55.96971 | -178.85085 | 38581 ft | 536 kts | 61° |
| 2026-04-29 15:23 | 56.00418 | -178.73283 | 38580 ft | 536 kts | 61° |
| 2026-04-29 15:24 | 56.03835 | -178.61525 | 38581 ft | 536 kts | 61° |
| 2026-04-29 15:24 | 56.07262 | -178.49672 | 38580 ft | 536 kts | 61° |
| 2026-04-29 15:25 | 56.10680 | -178.37792 | 38582 ft | 536 kts | 61° |
| 2026-04-29 15:25 | 56.14086 | -178.25892 | 38571 ft | 536 kts | 61° |
| 2026-04-29 15:26 | 56.17484 | -178.13960 | 38570 ft | 536 kts | 62° |
| 2026-04-29 15:26 | 56.20870 | -178.02009 | 38585 ft | 537 kts | 62° |
| 2026-04-29 15:27 | 56.24227 | -177.90095 | 38576 ft | 537 kts | 62° |
| 2026-04-29 15:27 | 56.27592 | -177.78094 | 38572 ft | 537 kts | 62° |
| 2026-04-29 15:28 | 56.30944 | -177.66074 | 38577 ft | 537 kts | 62° |
| 2026-04-29 15:28 | 56.34281 | -177.54049 | 38576 ft | 537 kts | 62° |
| 2026-04-29 15:29 | 56.37611 | -177.41984 | 38577 ft | 537 kts | 62° |
| 2026-04-29 15:30 | 56.44218 | -177.17852 | 38570 ft | 537 kts | 62° |
| 2026-04-29 15:30 | 56.47510 | -177.05734 | 38562 ft | 537 kts | 63° |
| 2026-04-29 15:31 | 56.50790 | -176.93598 | 38567 ft | 537 kts | 63° |
| 2026-04-29 15:31 | 56.54059 | -176.81437 | 38565 ft | 536 kts | 63° |
| 2026-04-29 15:32 | 56.57295 | -176.69329 | 38566 ft | 537 kts | 63° |
| 2026-04-29 15:32 | 56.60539 | -176.57129 | 38559 ft | 537 kts | 63° |
| 2026-04-29 15:33 | 56.63772 | -176.44908 | 38561 ft | 537 kts | 63° |
| 2026-04-29 15:33 | 56.66992 | -176.32665 | 38561 ft | 537 kts | 63° |
| 2026-04-29 15:34 | 56.70208 | -176.20373 | 38555 ft | 537 kts | 63° |
| 2026-04-29 15:34 | 56.73406 | -176.08082 | 38554 ft | 537 kts | 63° |
| 2026-04-29 15:35 | 56.76597 | -175.95748 | 38555 ft | 538 kts | 64° |
| 2026-04-29 15:35 | 56.79756 | -175.83470 | 38545 ft | 538 kts | 64° |
| 2026-04-29 15:36 | 56.82925 | -175.71089 | 38549 ft | 538 kts | 64° |
| 2026-04-29 15:36 | 56.86083 | -175.58682 | 38551 ft | 538 kts | 64° |
| 2026-04-29 15:37 | 56.86614 | -175.56589 | 38554 ft | 538 kts | 64° |
| 2026-04-29 15:37 | 56.87929 | -175.51395 | 38555 ft | 538 kts | 64° |
| 2026-04-29 15:38 | 56.91045 | -175.39041 | 38542 ft | 539 kts | 64° |
| 2026-04-29 15:38 | 56.94170 | -175.26581 | 38542 ft | 539 kts | 64° |
| 2026-04-29 15:39 | 56.97286 | -175.14089 | 38546 ft | 539 kts | 64° |
| 2026-04-29 15:39 | 57.00393 | -175.01562 | 38540 ft | 539 kts | 64° |
| 2026-04-29 15:40 | 57.03479 | -174.89046 | 38539 ft | 539 kts | 64° |
| 2026-04-29 15:40 | 57.06557 | -174.76493 | 38537 ft | 539 kts | 65° |
| 2026-04-29 15:41 | 57.09623 | -174.63916 | 38538 ft | 539 kts | 65° |
| 2026-04-29 15:41 | 57.12675 | -174.51325 | 38537 ft | 539 kts | 65° |
| 2026-04-29 15:42 | 57.15718 | -174.38700 | 38533 ft | 539 kts | 65° |
| 2026-04-29 15:42 | 57.18745 | -174.26062 | 38533 ft | 539 kts | 65° |
| 2026-04-29 15:43 | 57.21760 | -174.13408 | 38532 ft | 539 kts | 65° |
| 2026-04-29 15:43 | 57.24749 | -174.00782 | 38528 ft | 539 kts | 65° |
| 2026-04-29 15:44 | 57.27745 | -173.88056 | 38525 ft | 539 kts | 65° |
| 2026-04-29 15:44 | 57.30728 | -173.75307 | 38522 ft | 539 kts | 66° |
| 2026-04-29 15:45 | 57.33694 | -173.62560 | 38526 ft | 539 kts | 66° |
| 2026-04-29 15:45 | 57.36630 | -173.49864 | 38522 ft | 539 kts | 66° |
| 2026-04-29 15:46 | 57.39573 | -173.37060 | 38520 ft | 539 kts | 66° |
| 2026-04-29 15:46 | 57.42502 | -173.24240 | 38517 ft | 539 kts | 66° |
| 2026-04-29 15:47 | 57.45417 | -173.11405 | 38515 ft | 539 kts | 66° |
| 2026-04-29 15:47 | 57.48317 | -172.98554 | 38515 ft | 539 kts | 66° |
| 2026-04-29 15:48 | 57.51205 | -172.85684 | 38510 ft | 539 kts | 66° |
| 2026-04-29 15:48 | 57.53595 | -172.74971 | 38510 ft | 539 kts | 67° |
| 2026-04-29 15:49 | 57.56923 | -172.59963 | 38511 ft | 539 kts | 67° |
| 2026-04-29 15:49 | 57.59293 | -172.49208 | 38507 ft | 539 kts | 67° |
| 2026-04-29 15:50 | 57.62127 | -172.36271 | 38506 ft | 539 kts | 67° |
| 2026-04-29 15:50 | 57.64953 | -172.23293 | 38504 ft | 539 kts | 67° |
| 2026-04-29 15:51 | 57.67765 | -172.10299 | 38500 ft | 539 kts | 67° |
| 2026-04-29 15:51 | 57.70558 | -171.97310 | 38504 ft | 539 kts | 68° |
| 2026-04-29 15:52 | 57.73324 | -171.84368 | 38498 ft | 539 kts | 68° |
| 2026-04-29 15:52 | 57.76089 | -171.71343 | 38495 ft | 538 kts | 68° |
| 2026-04-29 15:53 | 57.78843 | -171.58290 | 38497 ft | 538 kts | 68° |
| 2026-04-29 15:53 | 57.81591 | -171.45180 | 38490 ft | 538 kts | 68° |
| 2026-04-29 15:54 | 57.84319 | -171.32086 | 38493 ft | 538 kts | 68° |
| 2026-04-29 15:54 | 57.87031 | -171.18981 | 38494 ft | 538 kts | 68° |
| 2026-04-29 15:55 | 57.89714 | -171.05930 | 38493 ft | 538 kts | 68° |
| 2026-04-29 15:55 | 57.92401 | -170.92773 | 38489 ft | 538 kts | 69° |
| 2026-04-29 15:56 | 57.95075 | -170.79607 | 38480 ft | 538 kts | 69° |
| 2026-04-29 15:56 | 57.97804 | -170.66462 | 38489 ft | 538 kts | 68° |
| 2026-04-29 15:57 | 58.00640 | -170.53397 | 38488 ft | 538 kts | 67° |
| 2026-04-29 15:57 | 58.03456 | -170.40388 | 38478 ft | 538 kts | 68° |
| 2026-04-29 15:58 | 58.06257 | -170.27254 | 38480 ft | 539 kts | 68° |
| 2026-04-29 15:58 | 58.09032 | -170.14093 | 38492 ft | 539 kts | 68° |
| 2026-04-29 15:59 | 58.11790 | -170.00923 | 38488 ft | 539 kts | 68° |
| 2026-04-29 15:59 | 58.14519 | -169.87815 | 38481 ft | 539 kts | 68° |
| 2026-04-29 16:00 | 58.17258 | -169.74579 | 38482 ft | 539 kts | 68° |
| 2026-04-29 16:00 | 58.19978 | -169.61348 | 38495 ft | 538 kts | 68° |
| 2026-04-29 16:01 | 58.22686 | -169.48090 | 38494 ft | 538 kts | 69° |
| 2026-04-29 16:01 | 58.25365 | -169.34885 | 38482 ft | 539 kts | 69° |
| 2026-04-29 16:02 | 58.28049 | -169.21569 | 38483 ft | 539 kts | 69° |
| 2026-04-29 16:02 | 58.30714 | -169.08260 | 38498 ft | 539 kts | 69° |
| 2026-04-29 16:03 | 58.33369 | -168.94908 | 38493 ft | 539 kts | 69° |
| 2026-04-29 16:03 | 58.35989 | -168.81640 | 38489 ft | 539 kts | 69° |
| 2026-04-29 16:04 | 58.38620 | -168.68230 | 38493 ft | 539 kts | 69° |
| 2026-04-29 16:04 | 58.41229 | -168.54839 | 38499 ft | 539 kts | 70° |
| 2026-04-29 16:05 | 58.43825 | -168.41428 | 38493 ft | 539 kts | 70° |
| 2026-04-29 16:05 | 58.46407 | -168.27994 | 38498 ft | 538 kts | 70° |
| 2026-04-29 16:06 | 58.48970 | -168.14566 | 38499 ft | 538 kts | 70° |
| 2026-04-29 16:06 | 58.51520 | -168.01114 | 38510 ft | 537 kts | 70° |
| 2026-04-29 16:07 | 58.52406 | -167.96417 | 38509 ft | 537 kts | 70° |
| 2026-04-29 16:07 | 58.54795 | -167.83695 | 38516 ft | 537 kts | 70° |
| 2026-04-29 16:08 | 58.57306 | -167.70236 | 38518 ft | 536 kts | 71° |
| 2026-04-29 16:08 | 58.59798 | -167.56779 | 38525 ft | 536 kts | 71° |
| 2026-04-29 16:09 | 58.62277 | -167.43301 | 38524 ft | 535 kts | 71° |
| 2026-04-29 16:09 | 58.64740 | -167.29812 | 38528 ft | 535 kts | 71° |
| 2026-04-29 16:10 | 58.67169 | -167.16415 | 38530 ft | 535 kts | 71° |
| 2026-04-29 16:10 | 58.69603 | -167.02907 | 38536 ft | 534 kts | 71° |
| 2026-04-29 16:11 | 58.72034 | -166.89406 | 38539 ft | 534 kts | 71° |
| 2026-04-29 16:11 | 58.74490 | -166.75883 | 38546 ft | 534 kts | 71° |
| 2026-04-29 16:12 | 58.76931 | -166.62356 | 38551 ft | 534 kts | 72° |
| 2026-04-29 16:12 | 58.79353 | -166.48801 | 38556 ft | 534 kts | 72° |
| 2026-04-29 16:13 | 58.81756 | -166.35237 | 38559 ft | 534 kts | 72° |
| 2026-04-29 16:13 | 58.84127 | -166.21756 | 38566 ft | 534 kts | 72° |
| 2026-04-29 16:14 | 58.86500 | -166.08168 | 38571 ft | 534 kts | 72° |
| 2026-04-29 16:14 | 58.88860 | -165.94572 | 38579 ft | 533 kts | 72° |
| 2026-04-29 16:15 | 58.91214 | -165.80937 | 38578 ft | 533 kts | 73° |
| 2026-04-29 16:15 | 58.93555 | -165.67306 | 38587 ft | 533 kts | 73° |
| 2026-04-29 16:16 | 58.95879 | -165.53673 | 38598 ft | 532 kts | 73° |
| 2026-04-29 16:16 | 58.98182 | -165.40056 | 38604 ft | 532 kts | 73° |
| 2026-04-29 16:17 | 59.00456 | -165.26506 | 38600 ft | 531 kts | 73° |
| 2026-04-29 16:17 | 59.02731 | -165.12842 | 38608 ft | 530 kts | 73° |
| 2026-04-29 16:18 | 59.04986 | -164.99200 | 38613 ft | 530 kts | 74° |
| 2026-04-29 16:18 | 59.07223 | -164.85564 | 38618 ft | 529 kts | 74° |
| 2026-04-29 16:19 | 59.09441 | -164.71933 | 38622 ft | 529 kts | 74° |
| 2026-04-29 16:19 | 59.11647 | -164.58277 | 38632 ft | 528 kts | 74° |
| 2026-04-29 16:20 | 59.13820 | -164.44720 | 38638 ft | 527 kts | 75° |
| 2026-04-29 16:20 | 59.15989 | -164.31079 | 38638 ft | 527 kts | 75° |
| 2026-04-29 16:21 | 59.18142 | -164.17429 | 38654 ft | 526 kts | 75° |
| 2026-04-29 16:21 | 59.20279 | -164.03776 | 38657 ft | 526 kts | 75° |
| 2026-04-29 16:22 | 59.22401 | -163.90108 | 38660 ft | 525 kts | 75° |
| 2026-04-29 16:22 | 59.24503 | -163.76460 | 38667 ft | 524 kts | 75° |
| 2026-04-29 16:23 | 59.26591 | -163.62794 | 38672 ft | 524 kts | 76° |
| 2026-04-29 16:23 | 59.28659 | -163.49145 | 38682 ft | 524 kts | 76° |
| 2026-04-29 16:24 | 59.30714 | -163.35481 | 38680 ft | 523 kts | 76° |
| 2026-04-29 16:24 | 59.32741 | -163.21881 | 38694 ft | 523 kts | 76° |
| 2026-04-29 16:25 | 59.34763 | -163.08214 | 38700 ft | 523 kts | 76° |
| 2026-04-29 16:25 | 59.36772 | -162.94515 | 38710 ft | 522 kts | 76° |
| 2026-04-29 16:26 | 59.38764 | -162.80814 | 38712 ft | 522 kts | 76° |
| 2026-04-29 16:26 | 59.40744 | -162.67084 | 38720 ft | 522 kts | 77° |
| 2026-04-29 16:27 | 59.42708 | -162.53355 | 38722 ft | 522 kts | 77° |
| 2026-04-29 16:27 | 59.44657 | -162.39618 | 38731 ft | 522 kts | 77° |
| 2026-04-29 16:28 | 59.46694 | -162.25912 | 38743 ft | 522 kts | 75° |
| 2026-04-29 16:28 | 59.48986 | -162.12342 | 38752 ft | 523 kts | 74° |
| 2026-04-29 16:29 | 59.51304 | -161.98849 | 38750 ft | 523 kts | 74° |
| 2026-04-29 16:29 | 59.53598 | -161.85243 | 38753 ft | 523 kts | 75° |
| 2026-04-29 16:30 | 59.55859 | -161.71585 | 38755 ft | 523 kts | 75° |
| 2026-04-29 16:30 | 59.58095 | -161.57937 | 38756 ft | 523 kts | 75° |
| 2026-04-29 16:31 | 59.60303 | -161.44352 | 38760 ft | 522 kts | 75° |
| 2026-04-29 16:31 | 59.62508 | -161.30700 | 38755 ft | 522 kts | 75° |
| 2026-04-29 16:32 | 59.64717 | -161.16924 | 38757 ft | 522 kts | 76° |
| 2026-04-29 16:32 | 59.66880 | -161.03321 | 38771 ft | 521 kts | 76° |
| 2026-04-29 16:33 | 59.70117 | -160.82765 | 38765 ft | 521 kts | 76° |
| 2026-04-29 16:33 | 59.72258 | -160.69041 | 38771 ft | 521 kts | 76° |
| 2026-04-29 16:34 | 59.74385 | -160.55286 | 38778 ft | 521 kts | 77° |
| 2026-04-29 16:34 | 59.76138 | -160.43866 | 38781 ft | 520 kts | 77° |
| 2026-04-29 16:35 | 59.78233 | -160.30121 | 38792 ft | 520 kts | 77° |
| 2026-04-29 16:35 | 59.80314 | -160.16360 | 38795 ft | 519 kts | 77° |
| 2026-04-29 16:36 | 59.82375 | -160.02616 | 38803 ft | 518 kts | 77° |
| 2026-04-29 16:36 | 59.84074 | -159.91200 | 38814 ft | 518 kts | 77° |
| 2026-04-29 16:37 | 59.84936 | -159.85375 | 38872 ft | 518 kts | 74° |
| 2026-04-29 16:37 | 59.86626 | -159.73889 | 38825 ft | 521 kts | 75° |
| 2026-04-29 16:38 | 59.88996 | -159.57669 | 38846 ft | 523 kts | 76° |
| 2026-04-29 16:38 | 59.91017 | -159.43707 | 38844 ft | 524 kts | 76° |
| 2026-04-29 16:39 | 59.93026 | -159.29708 | 38858 ft | 525 kts | 76° |
| 2026-04-29 16:39 | 59.95007 | -159.15781 | 38861 ft | 525 kts | 76° |
| 2026-04-29 16:40 | 59.96989 | -159.01737 | 38874 ft | 526 kts | 76° |
| 2026-04-29 16:40 | 59.98962 | -158.87622 | 38877 ft | 526 kts | 76° |
| 2026-04-29 16:41 | 60.00916 | -158.73524 | 38893 ft | 526 kts | 77° |
| 2026-04-29 16:41 | 60.02850 | -158.59445 | 38897 ft | 525 kts | 77° |
| 2026-04-29 16:42 | 60.04768 | -158.45357 | 38907 ft | 524 kts | 77° |
| 2026-04-29 16:42 | 60.06655 | -158.31363 | 38915 ft | 523 kts | 77° |
| 2026-04-29 16:43 | 60.08538 | -158.17280 | 38920 ft | 523 kts | 77° |
| 2026-04-29 16:43 | 60.10405 | -158.03189 | 38929 ft | 523 kts | 77° |
| 2026-04-29 16:44 | 60.12258 | -157.89071 | 38931 ft | 523 kts | 77° |
| 2026-04-29 16:44 | 60.14097 | -157.74932 | 38933 ft | 523 kts | 78° |
| 2026-04-29 16:45 | 60.15921 | -157.60777 | 38946 ft | 523 kts | 78° |
| 2026-04-29 16:45 | 60.17716 | -157.46718 | 38951 ft | 523 kts | 78° |
| 2026-04-29 16:46 | 60.19507 | -157.32550 | 38951 ft | 523 kts | 78° |
| 2026-04-29 16:46 | 60.21288 | -157.18325 | 38960 ft | 524 kts | 78° |
| 2026-04-29 16:47 | 60.23052 | -157.04106 | 38965 ft | 524 kts | 78° |
| 2026-04-29 16:47 | 60.24794 | -156.89925 | 38969 ft | 525 kts | 79° |
| 2026-04-29 16:48 | 60.26533 | -156.75626 | 38967 ft | 526 kts | 79° |
| 2026-04-29 16:48 | 60.28258 | -156.61297 | 38973 ft | 526 kts | 79° |
| 2026-04-29 16:49 | 60.29971 | -156.46936 | 38982 ft | 526 kts | 79° |
| 2026-04-29 16:49 | 60.31656 | -156.32658 | 38988 ft | 527 kts | 79° |
| 2026-04-29 16:50 | 60.33340 | -156.18244 | 38981 ft | 527 kts | 79° |
| 2026-04-29 16:50 | 60.35008 | -156.03822 | 38992 ft | 527 kts | 79° |
| 2026-04-29 16:51 | 60.36660 | -155.89385 | 38999 ft | 527 kts | 79° |
| 2026-04-29 16:51 | 60.38295 | -155.74939 | 38996 ft | 527 kts | 79° |
| 2026-04-29 16:52 | 60.39907 | -155.60553 | 39001 ft | 527 kts | 79° |
| 2026-04-29 16:52 | 60.41510 | -155.46091 | 39008 ft | 527 kts | 80° |
| 2026-04-29 16:53 | 60.43098 | -155.31600 | 39009 ft | 527 kts | 80° |
| 2026-04-29 16:53 | 60.44670 | -155.17110 | 39013 ft | 526 kts | 80° |
| 2026-04-29 16:54 | 60.46224 | -155.02622 | 39014 ft | 526 kts | 80° |
| 2026-04-29 16:54 | 60.47763 | -154.88119 | 39016 ft | 526 kts | 80° |
| 2026-04-29 16:55 | 60.49286 | -154.73623 | 39022 ft | 525 kts | 80° |
| 2026-04-29 16:55 | 60.51136 | -154.59371 | 39033 ft | 527 kts | 74° |
| 2026-04-29 16:56 | 60.53444 | -154.45244 | 39036 ft | 527 kts | 73° |
| 2026-04-29 16:56 | 60.55768 | -154.31121 | 39020 ft | 527 kts | 74° |
| 2026-04-29 16:57 | 60.58041 | -154.16957 | 39030 ft | 526 kts | 74° |
| 2026-04-29 16:57 | 60.60278 | -154.02749 | 39045 ft | 526 kts | 75° |
| 2026-04-29 16:58 | 60.62476 | -153.88641 | 39051 ft | 526 kts | 75° |
| 2026-04-29 16:58 | 60.64674 | -153.74434 | 39072 ft | 525 kts | 75° |
| 2026-04-29 16:59 | 60.66860 | -153.60202 | 39078 ft | 526 kts | 75° |
| 2026-04-29 16:59 | 60.69032 | -153.45937 | 39088 ft | 526 kts | 75° |
| 2026-04-29 17:00 | 60.71189 | -153.31654 | 39090 ft | 527 kts | 75° |
| 2026-04-29 17:00 | 60.73340 | -153.17299 | 39108 ft | 528 kts | 76° |
| 2026-04-29 17:01 | 60.75473 | -153.02939 | 39100 ft | 528 kts | 76° |
| 2026-04-29 17:01 | 60.77578 | -152.88649 | 39130 ft | 528 kts | 76° |
| 2026-04-29 17:02 | 60.79677 | -152.74270 | 39115 ft | 528 kts | 76° |
| 2026-04-29 17:02 | 60.81765 | -152.59840 | 39138 ft | 528 kts | 76° |
| 2026-04-29 17:03 | 60.83838 | -152.45388 | 39144 ft | 529 kts | 76° |
| 2026-04-29 17:03 | 60.85900 | -152.30889 | 39143 ft | 530 kts | 76° |
| 2026-04-29 17:04 | 60.87949 | -152.16355 | 39146 ft | 530 kts | 77° |
| 2026-04-29 17:04 | 60.89984 | -152.01794 | 39143 ft | 530 kts | 77° |
| 2026-04-29 17:05 | 60.91998 | -151.87250 | 39152 ft | 529 kts | 77° |
| 2026-04-29 17:05 | 60.93998 | -151.72669 | 39148 ft | 529 kts | 77° |
| 2026-04-29 17:06 | 60.95967 | -151.58184 | 39148 ft | 529 kts | 77° |
| 2026-04-29 17:06 | 60.97287 | -151.48403 | 39148 ft | 529 kts | 77° |
| 2026-04-29 17:07 | 60.98022 | -151.42927 | 39145 ft | 529 kts | 77° |
| 2026-04-29 17:07 | 61.00302 | -151.25817 | 39144 ft | 529 kts | 78° |
| 2026-04-29 17:08 | 61.02218 | -151.11302 | 39143 ft | 529 kts | 78° |
| 2026-04-29 17:08 | 61.04134 | -150.96643 | 39141 ft | 529 kts | 78° |
| 2026-04-29 17:09 | 61.06034 | -150.81964 | 39137 ft | 529 kts | 78° |
| 2026-04-29 17:09 | 61.07918 | -150.67271 | 39147 ft | 529 kts | 78° |
| 2026-04-29 17:10 | 61.09783 | -150.52586 | 39148 ft | 528 kts | 79° |
| 2026-04-29 17:10 | 61.11627 | -150.37925 | 39153 ft | 528 kts | 79° |
| 2026-04-29 17:11 | 61.13461 | -150.23197 | 39157 ft | 528 kts | 79° |
| 2026-04-29 17:11 | 61.15272 | -150.08530 | 39159 ft | 529 kts | 79° |
| 2026-04-29 17:12 | 61.17369 | -149.93881 | 39176 ft | 532 kts | 72° |
| 2026-04-29 17:12 | 61.19975 | -149.82173 | 39168 ft | 535 kts | 66° |
| 2026-04-29 17:13 | 61.23914 | -149.66150 | 39135 ft | 536 kts | 66° |
| 2026-04-29 17:13 | 61.27283 | -149.52284 | 39134 ft | 536 kts | 66° |
| 2026-04-29 17:14 | 61.30570 | -149.38463 | 39191 ft | 536 kts | 67° |
| 2026-04-29 17:14 | 61.33853 | -149.24484 | 39181 ft | 537 kts | 67° |
| 2026-04-29 17:15 | 61.37129 | -149.10456 | 39176 ft | 537 kts | 67° |
| 2026-04-29 17:15 | 61.40391 | -148.96413 | 39158 ft | 538 kts | 68° |
| 2026-04-29 17:16 | 61.42017 | -148.89380 | 38879 ft | 538 kts | 67° |
| 2026-04-29 17:16 | 61.43617 | -148.82440 | 38985 ft | 535 kts | 67° |
| 2026-04-29 17:16 | 61.46830 | -148.68431 | 39100 ft | 533 kts | 67° |
| 2026-04-29 17:17 | 61.50018 | -148.54437 | 39171 ft | 534 kts | 67° |
| 2026-04-29 17:17 | 61.53207 | -148.40343 | 39190 ft | 535 kts | 67° |
| 2026-04-29 17:18 | 61.56385 | -148.26207 | 39213 ft | 537 kts | 67° |
| 2026-04-29 17:18 | 61.59559 | -148.11993 | 39211 ft | 538 kts | 68° |
| 2026-04-29 17:19 | 61.62726 | -147.97720 | 39227 ft | 539 kts | 68° |
| 2026-04-29 17:19 | 61.65878 | -147.83423 | 39230 ft | 538 kts | 68° |
| 2026-04-29 17:20 | 61.69012 | -147.69099 | 39241 ft | 538 kts | 68° |
| 2026-04-29 17:20 | 61.72128 | -147.54762 | 39233 ft | 538 kts | 68° |
| 2026-04-29 17:21 | 61.75230 | -147.40398 | 39236 ft | 538 kts | 68° |
| 2026-04-29 17:21 | 61.78293 | -147.26111 | 39237 ft | 537 kts | 68° |
| 2026-04-29 17:22 | 61.81357 | -147.11724 | 39236 ft | 536 kts | 68° |
| 2026-04-29 17:22 | 61.84407 | -146.97301 | 39220 ft | 536 kts | 68° |
| 2026-04-29 17:23 | 61.86928 | -146.85308 | 39226 ft | 535 kts | 68° |
| 2026-04-29 17:23 | 61.89938 | -146.70891 | 39218 ft | 535 kts | 68° |
| 2026-04-29 17:24 | 61.92933 | -146.56445 | 39215 ft | 534 kts | 68° |
| 2026-04-29 17:24 | 61.95915 | -146.41958 | 39207 ft | 534 kts | 68° |
| 2026-04-29 17:25 | 61.98857 | -146.27570 | 39204 ft | 534 kts | 69° |
| 2026-04-29 17:25 | 62.01804 | -146.13055 | 39198 ft | 534 kts | 69° |
| 2026-04-29 17:26 | 62.04738 | -145.98501 | 39181 ft | 534 kts | 69° |
| 2026-04-29 17:26 | 62.07653 | -145.83932 | 39161 ft | 534 kts | 69° |
| 2026-04-29 17:27 | 62.10560 | -145.69301 | 39145 ft | 535 kts | 69° |
| 2026-04-29 17:27 | 62.13436 | -145.54732 | 39140 ft | 535 kts | 69° |
| 2026-04-29 17:28 | 62.16430 | -145.40131 | 39143 ft | 537 kts | 65° |
| 2026-04-29 17:28 | 62.19849 | -145.25907 | 39143 ft | 538 kts | 64° |
| 2026-04-29 17:29 | 62.23333 | -145.11718 | 39153 ft | 538 kts | 64° |
| 2026-04-29 17:29 | 62.26782 | -144.97441 | 39163 ft | 538 kts | 64° |
| 2026-04-29 17:30 | 62.30190 | -144.83098 | 39179 ft | 538 kts | 65° |
| 2026-04-29 17:30 | 62.33575 | -144.68719 | 39186 ft | 539 kts | 65° |
| 2026-04-29 17:31 | 62.36946 | -144.54309 | 39196 ft | 539 kts | 65° |
| 2026-04-29 17:31 | 62.40309 | -144.39855 | 39195 ft | 539 kts | 65° |
| 2026-04-29 17:32 | 62.43653 | -144.25386 | 39200 ft | 539 kts | 65° |
| 2026-04-29 17:32 | 62.46962 | -144.10967 | 39195 ft | 539 kts | 65° |
| 2026-04-29 17:33 | 62.50277 | -143.96429 | 39200 ft | 539 kts | 65° |
| 2026-04-29 17:33 | 62.53579 | -143.81849 | 39188 ft | 539 kts | 65° |
| 2026-04-29 17:34 | 62.56863 | -143.67246 | 39191 ft | 539 kts | 65° |
| 2026-04-29 17:34 | 62.60133 | -143.52611 | 39182 ft | 539 kts | 66° |
| 2026-04-29 17:35 | 62.65011 | -143.30581 | 39176 ft | 539 kts | 66° |
| 2026-04-29 17:36 | 62.68244 | -143.15854 | 39167 ft | 539 kts | 66° |
| 2026-04-29 17:36 | 62.71442 | -143.01185 | 39167 ft | 539 kts | 66° |
| 2026-04-29 17:37 | 62.72526 | -142.96191 | 39165 ft | 540 kts | 66° |
| 2026-04-29 17:37 | 62.75348 | -142.83134 | 39159 ft | 540 kts | 66° |
| 2026-04-29 17:38 | 62.78540 | -142.68261 | 39152 ft | 540 kts | 66° |
| 2026-04-29 17:38 | 62.81694 | -142.53463 | 39145 ft | 540 kts | 66° |
| 2026-04-29 17:39 | 62.84853 | -142.38536 | 39126 ft | 541 kts | 67° |
| 2026-04-29 17:39 | 62.88001 | -142.23552 | 39113 ft | 541 kts | 67° |
| 2026-04-29 17:40 | 62.91137 | -142.08527 | 39102 ft | 541 kts | 67° |
| 2026-04-29 17:40 | 62.93811 | -141.93248 | 39100 ft | 538 kts | 77° |
| 2026-04-29 17:41 | 62.95263 | -141.77186 | 39096 ft | 534 kts | 88° |
| 2026-04-29 17:41 | 62.95788 | -141.60895 | 39108 ft | 533 kts | 89° |
| 2026-04-29 17:42 | 62.96229 | -141.44597 | 39147 ft | 535 kts | 90° |
| 2026-04-29 17:42 | 62.96702 | -141.28232 | 39143 ft | 536 kts | 90° |
| 2026-04-29 17:43 | 62.97185 | -141.11987 | 39142 ft | 537 kts | 90° |
| 2026-04-29 17:43 | 62.97658 | -140.95602 | 39142 ft | 537 kts | 90° |
| 2026-04-29 17:44 | 62.98107 | -140.79217 | 39149 ft | 537 kts | 90° |
| 2026-04-29 17:44 | 62.98535 | -140.62815 | 39156 ft | 537 kts | 90° |
| 2026-04-29 17:45 | 62.98944 | -140.46412 | 39153 ft | 537 kts | 90° |
| 2026-04-29 17:45 | 62.99335 | -140.30007 | 39152 ft | 536 kts | 91° |
| 2026-04-29 17:46 | 62.99706 | -140.13617 | 39164 ft | 536 kts | 91° |
| 2026-04-29 17:46 | 63.00066 | -139.97206 | 39160 ft | 536 kts | 90° |
| 2026-04-29 17:47 | 63.00581 | -139.80799 | 39171 ft | 537 kts | 89° |
| 2026-04-29 17:47 | 63.01179 | -139.64388 | 39160 ft | 537 kts | 89° |
| 2026-04-29 17:48 | 63.01743 | -139.47980 | 39173 ft | 537 kts | 89° |
| 2026-04-29 17:48 | 63.02257 | -139.31654 | 39167 ft | 538 kts | 90° |
| 2026-04-29 17:49 | 63.02746 | -139.15188 | 39166 ft | 539 kts | 90° |
| 2026-04-29 17:49 | 63.03217 | -138.98711 | 39164 ft | 540 kts | 90° |
| 2026-04-29 17:50 | 63.03672 | -138.82169 | 39169 ft | 540 kts | 90° |
| 2026-04-29 17:50 | 63.04109 | -138.65642 | 39161 ft | 540 kts | 90° |
| 2026-04-29 17:51 | 63.04526 | -138.49094 | 39166 ft | 541 kts | 90° |
| 2026-04-29 17:51 | 63.04924 | -138.32545 | 39172 ft | 541 kts | 90° |
| 2026-04-29 17:52 | 63.05304 | -138.15987 | 39180 ft | 541 kts | 90° |
| 2026-04-29 17:52 | 63.05664 | -137.99402 | 39182 ft | 542 kts | 90° |
| 2026-04-29 17:53 | 63.06005 | -137.82805 | 39173 ft | 542 kts | 91° |
| 2026-04-29 17:53 | 63.06327 | -137.66157 | 39178 ft | 543 kts | 91° |
| 2026-04-29 17:54 | 63.06628 | -137.49637 | 39177 ft | 543 kts | 91° |
| 2026-04-29 17:54 | 63.06912 | -137.32951 | 39196 ft | 543 kts | 91° |
| 2026-04-29 17:55 | 63.07176 | -137.16292 | 39193 ft | 543 kts | 91° |
| 2026-04-29 17:55 | 63.07418 | -136.99749 | 39189 ft | 543 kts | 91° |
| 2026-04-29 17:56 | 63.07643 | -136.83091 | 39192 ft | 543 kts | 91° |
| 2026-04-29 17:56 | 63.07848 | -136.66413 | 39188 ft | 544 kts | 91° |
| 2026-04-29 17:57 | 63.08034 | -136.49711 | 39186 ft | 544 kts | 91° |
| 2026-04-29 17:57 | 63.08201 | -136.33001 | 39185 ft | 544 kts | 92° |
| 2026-04-29 17:58 | 63.08348 | -136.16303 | 39187 ft | 545 kts | 92° |
| 2026-04-29 17:58 | 63.08474 | -135.99567 | 39192 ft | 545 kts | 92° |
| 2026-04-29 17:59 | 63.08581 | -135.82931 | 39192 ft | 546 kts | 92° |
| 2026-04-29 17:59 | 63.08670 | -135.66064 | 39194 ft | 546 kts | 92° |
| 2026-04-29 18:00 | 63.08738 | -135.49391 | 39197 ft | 547 kts | 92° |
| 2026-04-29 18:00 | 63.08786 | -135.32596 | 39195 ft | 548 kts | 92° |
| 2026-04-29 18:01 | 63.08815 | -135.15778 | 39197 ft | 547 kts | 92° |
| 2026-04-29 18:01 | 63.08820 | -135.10102 | 39203 ft | 547 kts | 92° |